<?xml version="1.0" encoding="UTF-8" standalone="no" ?>
<gpx xmlns="http://www.topografix.com/GPX/1/1" xmlns:xsi="http://www.w3.org/2001/XMLSchema-instance" xsi:schemaLocation="http://www.topografix.com/GPX/1/1 http://www.topografix.com/GPX/1/1/gpx.xsd" version="1.1" creator="VisuGPX - https://www.visugpx.com">
  <metadata>
    <name>46 CCC Flémalle - Mal - Flémalle</name>
    <desc><![CDATA[Randonnée au départ de l'Auto5 de Flémalle.]]></desc>
  </metadata>
  <trk>
    <name><![CDATA[46 CCC]]></name>
    <extensions>
      <line xmlns="http://www.topografix.com/GPX/gpx_style/0/2">
        <color>0000FF</color>
        <width>4</width>
      </line>
    </extensions>
    <trkseg>
      <trkpt lat="50.60426" lon="5.48424">
        <ele>65</ele>
        <time>2019-01-19T22:02:08Z</time>
      </trkpt>
      <trkpt lat="50.60403" lon="5.48441">
        <ele>65</ele>
        <time>2019-01-19T22:03:08Z</time>
      </trkpt>
      <trkpt lat="50.60349" lon="5.48517">
        <ele>64</ele>
        <time>2019-01-19T22:04:08Z</time>
      </trkpt>
      <trkpt lat="50.60364" lon="5.48551">
        <ele>63</ele>
        <time>2019-01-19T22:05:08Z</time>
      </trkpt>
      <trkpt lat="50.60374" lon="5.48534">
        <ele>64</ele>
        <time>2019-01-19T22:06:08Z</time>
      </trkpt>
      <trkpt lat="50.60422" lon="5.48473">
        <ele>64</ele>
        <time>2019-01-19T22:07:08Z</time>
      </trkpt>
      <trkpt lat="50.60487" lon="5.48392">
        <ele>67</ele>
        <time>2019-01-19T22:08:08Z</time>
      </trkpt>
      <trkpt lat="50.60494" lon="5.48395">
        <ele>67</ele>
        <time>2019-01-19T22:09:08Z</time>
      </trkpt>
      <trkpt lat="50.60501" lon="5.48392">
        <ele>67</ele>
        <time>2019-01-19T22:10:08Z</time>
      </trkpt>
      <trkpt lat="50.60511" lon="5.48413">
        <ele>67</ele>
        <time>2019-01-19T22:11:08Z</time>
      </trkpt>
      <trkpt lat="50.60613" lon="5.48646">
        <ele>64</ele>
        <time>2019-01-19T22:12:08Z</time>
      </trkpt>
      <trkpt lat="50.60667" lon="5.48768">
        <ele>64</ele>
        <time>2019-01-19T22:13:08Z</time>
      </trkpt>
      <trkpt lat="50.60728" lon="5.48885">
        <ele>64</ele>
        <time>2019-01-19T22:14:08Z</time>
      </trkpt>
      <trkpt lat="50.60746" lon="5.48921">
        <ele>64</ele>
        <time>2019-01-19T22:15:08Z</time>
      </trkpt>
      <trkpt lat="50.60783" lon="5.48995">
        <ele>65</ele>
        <time>2019-01-19T22:16:08Z</time>
      </trkpt>
      <trkpt lat="50.60822" lon="5.49067">
        <ele>65</ele>
        <time>2019-01-19T22:17:08Z</time>
      </trkpt>
      <trkpt lat="50.6085" lon="5.49112">
        <ele>65</ele>
        <time>2019-01-19T22:18:08Z</time>
      </trkpt>
      <trkpt lat="50.60906" lon="5.49201">
        <ele>64</ele>
        <time>2019-01-19T22:19:08Z</time>
      </trkpt>
      <trkpt lat="50.60956" lon="5.49278">
        <ele>65</ele>
        <time>2019-01-19T22:20:08Z</time>
      </trkpt>
      <trkpt lat="50.60987" lon="5.49323">
        <ele>65</ele>
        <time>2019-01-19T22:21:08Z</time>
      </trkpt>
      <trkpt lat="50.61032" lon="5.49389">
        <ele>64</ele>
        <time>2019-01-19T22:22:08Z</time>
      </trkpt>
      <trkpt lat="50.61111" lon="5.4951">
        <ele>64</ele>
        <time>2019-01-19T22:23:08Z</time>
      </trkpt>
      <trkpt lat="50.61151" lon="5.4957">
        <ele>66</ele>
        <time>2019-01-19T22:24:08Z</time>
      </trkpt>
      <trkpt lat="50.61189" lon="5.49629">
        <ele>67</ele>
        <time>2019-01-19T22:25:08Z</time>
      </trkpt>
      <trkpt lat="50.6123" lon="5.4969">
        <ele>66</ele>
        <time>2019-01-19T22:26:08Z</time>
      </trkpt>
      <trkpt lat="50.61271" lon="5.49757">
        <ele>62</ele>
        <time>2019-01-19T22:27:08Z</time>
      </trkpt>
      <trkpt lat="50.61304" lon="5.49816">
        <ele>61</ele>
        <time>2019-01-19T22:28:08Z</time>
      </trkpt>
      <trkpt lat="50.61349" lon="5.49894">
        <ele>61</ele>
        <time>2019-01-19T22:29:08Z</time>
      </trkpt>
      <trkpt lat="50.61413" lon="5.5">
        <ele>63</ele>
        <time>2019-01-19T22:30:08Z</time>
      </trkpt>
      <trkpt lat="50.61465" lon="5.50093">
        <ele>63</ele>
        <time>2019-01-19T22:31:08Z</time>
      </trkpt>
      <trkpt lat="50.61495" lon="5.5006">
        <ele>63</ele>
        <time>2019-01-19T22:32:08Z</time>
      </trkpt>
      <trkpt lat="50.61535" lon="5.50024">
        <ele>64</ele>
        <time>2019-01-19T22:33:08Z</time>
      </trkpt>
      <trkpt lat="50.61556" lon="5.50009">
        <ele>64</ele>
        <time>2019-01-19T22:34:08Z</time>
      </trkpt>
      <trkpt lat="50.61579" lon="5.49989">
        <ele>64</ele>
        <time>2019-01-19T22:35:08Z</time>
      </trkpt>
      <trkpt lat="50.61603" lon="5.49964">
        <ele>65</ele>
        <time>2019-01-19T22:36:08Z</time>
      </trkpt>
      <trkpt lat="50.61623" lon="5.49943">
        <ele>65</ele>
        <time>2019-01-19T22:37:08Z</time>
      </trkpt>
      <trkpt lat="50.6165" lon="5.49906">
        <ele>66</ele>
        <time>2019-01-19T22:38:08Z</time>
      </trkpt>
      <trkpt lat="50.61676" lon="5.49873">
        <ele>66</ele>
        <time>2019-01-19T22:39:08Z</time>
      </trkpt>
      <trkpt lat="50.61696" lon="5.49856">
        <ele>66</ele>
        <time>2019-01-19T22:40:08Z</time>
      </trkpt>
      <trkpt lat="50.61715" lon="5.49844">
        <ele>67</ele>
        <time>2019-01-19T22:41:08Z</time>
      </trkpt>
      <trkpt lat="50.61744" lon="5.49827">
        <ele>68</ele>
        <time>2019-01-19T22:42:08Z</time>
      </trkpt>
      <trkpt lat="50.61786" lon="5.49805">
        <ele>69</ele>
        <time>2019-01-19T22:43:08Z</time>
      </trkpt>
      <trkpt lat="50.61813" lon="5.49783">
        <ele>69</ele>
        <time>2019-01-19T22:44:08Z</time>
      </trkpt>
      <trkpt lat="50.61858" lon="5.49738">
        <ele>71</ele>
        <time>2019-01-19T22:45:08Z</time>
      </trkpt>
      <trkpt lat="50.6189" lon="5.49708">
        <ele>72</ele>
        <time>2019-01-19T22:46:08Z</time>
      </trkpt>
      <trkpt lat="50.6192" lon="5.49681">
        <ele>72</ele>
        <time>2019-01-19T22:47:08Z</time>
      </trkpt>
      <trkpt lat="50.61939" lon="5.49662">
        <ele>73</ele>
        <time>2019-01-19T22:48:08Z</time>
      </trkpt>
      <trkpt lat="50.61951" lon="5.49647">
        <ele>75</ele>
        <time>2019-01-19T22:49:08Z</time>
      </trkpt>
      <trkpt lat="50.61967" lon="5.49626">
        <ele>76</ele>
        <time>2019-01-19T22:50:08Z</time>
      </trkpt>
      <trkpt lat="50.61986" lon="5.49608">
        <ele>77</ele>
        <time>2019-01-19T22:51:08Z</time>
      </trkpt>
      <trkpt lat="50.62011" lon="5.49601">
        <ele>78</ele>
        <time>2019-01-19T22:52:08Z</time>
      </trkpt>
      <trkpt lat="50.62035" lon="5.49597">
        <ele>79</ele>
        <time>2019-01-19T22:53:08Z</time>
      </trkpt>
      <trkpt lat="50.62087" lon="5.49597">
        <ele>80</ele>
        <time>2019-01-19T22:54:08Z</time>
      </trkpt>
      <trkpt lat="50.62114" lon="5.49598">
        <ele>80</ele>
        <time>2019-01-19T22:55:08Z</time>
      </trkpt>
      <trkpt lat="50.62134" lon="5.496">
        <ele>80</ele>
        <time>2019-01-19T22:56:08Z</time>
      </trkpt>
      <trkpt lat="50.62149" lon="5.49601">
        <ele>80</ele>
        <time>2019-01-19T22:57:08Z</time>
      </trkpt>
      <trkpt lat="50.62155" lon="5.49606">
        <ele>80</ele>
        <time>2019-01-19T22:58:08Z</time>
      </trkpt>
      <trkpt lat="50.62161" lon="5.49611">
        <ele>80</ele>
        <time>2019-01-19T22:59:08Z</time>
      </trkpt>
      <trkpt lat="50.62169" lon="5.4963">
        <ele>80</ele>
        <time>2019-01-19T23:00:08Z</time>
      </trkpt>
      <trkpt lat="50.62179" lon="5.49652">
        <ele>81</ele>
        <time>2019-01-19T23:01:08Z</time>
      </trkpt>
      <trkpt lat="50.62193" lon="5.4968">
        <ele>81</ele>
        <time>2019-01-19T23:02:08Z</time>
      </trkpt>
      <trkpt lat="50.6222" lon="5.49711">
        <ele>81</ele>
        <time>2019-01-19T23:03:08Z</time>
      </trkpt>
      <trkpt lat="50.62256" lon="5.49746">
        <ele>82</ele>
        <time>2019-01-19T23:04:08Z</time>
      </trkpt>
      <trkpt lat="50.62279" lon="5.49764">
        <ele>85</ele>
        <time>2019-01-19T23:05:08Z</time>
      </trkpt>
      <trkpt lat="50.62315" lon="5.49801">
        <ele>88</ele>
        <time>2019-01-19T23:06:08Z</time>
      </trkpt>
      <trkpt lat="50.6233" lon="5.49819">
        <ele>89</ele>
        <time>2019-01-19T23:07:08Z</time>
      </trkpt>
      <trkpt lat="50.62338" lon="5.49832">
        <ele>89</ele>
        <time>2019-01-19T23:08:08Z</time>
      </trkpt>
      <trkpt lat="50.62376" lon="5.49883">
        <ele>92</ele>
        <time>2019-01-19T23:09:08Z</time>
      </trkpt>
      <trkpt lat="50.62399" lon="5.49914">
        <ele>93</ele>
        <time>2019-01-19T23:10:08Z</time>
      </trkpt>
      <trkpt lat="50.62453" lon="5.49984">
        <ele>97</ele>
        <time>2019-01-19T23:11:08Z</time>
      </trkpt>
      <trkpt lat="50.625" lon="5.50047">
        <ele>99</ele>
        <time>2019-01-19T23:12:08Z</time>
      </trkpt>
      <trkpt lat="50.62541" lon="5.50106">
        <ele>102</ele>
        <time>2019-01-19T23:13:08Z</time>
      </trkpt>
      <trkpt lat="50.62679" lon="5.50309">
        <ele>114</ele>
        <time>2019-01-19T23:14:08Z</time>
      </trkpt>
      <trkpt lat="50.6275" lon="5.50412">
        <ele>108</ele>
        <time>2019-01-19T23:15:08Z</time>
      </trkpt>
      <trkpt lat="50.62821" lon="5.50528">
        <ele>107</ele>
        <time>2019-01-19T23:16:08Z</time>
      </trkpt>
      <trkpt lat="50.62847" lon="5.5057">
        <ele>106</ele>
        <time>2019-01-19T23:17:08Z</time>
      </trkpt>
      <trkpt lat="50.62883" lon="5.50631">
        <ele>106</ele>
        <time>2019-01-19T23:18:08Z</time>
      </trkpt>
      <trkpt lat="50.62899" lon="5.50655">
        <ele>106</ele>
        <time>2019-01-19T23:19:08Z</time>
      </trkpt>
      <trkpt lat="50.6292" lon="5.50688">
        <ele>106</ele>
        <time>2019-01-19T23:20:08Z</time>
      </trkpt>
      <trkpt lat="50.62947" lon="5.50709">
        <ele>106</ele>
        <time>2019-01-19T23:21:08Z</time>
      </trkpt>
      <trkpt lat="50.62971" lon="5.5072">
        <ele>105</ele>
        <time>2019-01-19T23:22:08Z</time>
      </trkpt>
      <trkpt lat="50.62971" lon="5.5073">
        <ele>104</ele>
        <time>2019-01-19T23:23:08Z</time>
      </trkpt>
      <trkpt lat="50.62977" lon="5.50737">
        <ele>104</ele>
        <time>2019-01-19T23:24:08Z</time>
      </trkpt>
      <trkpt lat="50.62984" lon="5.5074">
        <ele>104</ele>
        <time>2019-01-19T23:25:08Z</time>
      </trkpt>
      <trkpt lat="50.62991" lon="5.50743">
        <ele>104</ele>
        <time>2019-01-19T23:26:08Z</time>
      </trkpt>
      <trkpt lat="50.6311" lon="5.50841">
        <ele>104</ele>
        <time>2019-01-19T23:27:08Z</time>
      </trkpt>
      <trkpt lat="50.63164" lon="5.50889">
        <ele>108</ele>
        <time>2019-01-19T23:28:08Z</time>
      </trkpt>
      <trkpt lat="50.63202" lon="5.50927">
        <ele>109</ele>
        <time>2019-01-19T23:29:08Z</time>
      </trkpt>
      <trkpt lat="50.63208" lon="5.50944">
        <ele>110</ele>
        <time>2019-01-19T23:30:08Z</time>
      </trkpt>
      <trkpt lat="50.63227" lon="5.50979">
        <ele>110</ele>
        <time>2019-01-19T23:31:08Z</time>
      </trkpt>
      <trkpt lat="50.6325" lon="5.51003">
        <ele>107</ele>
        <time>2019-01-19T23:32:08Z</time>
      </trkpt>
      <trkpt lat="50.63274" lon="5.51048">
        <ele>112</ele>
        <time>2019-01-19T23:33:08Z</time>
      </trkpt>
      <trkpt lat="50.6331" lon="5.51117">
        <ele>114</ele>
        <time>2019-01-19T23:34:08Z</time>
      </trkpt>
      <trkpt lat="50.63335" lon="5.51153">
        <ele>111</ele>
        <time>2019-01-19T23:35:08Z</time>
      </trkpt>
      <trkpt lat="50.63383" lon="5.51234">
        <ele>116</ele>
        <time>2019-01-19T23:36:08Z</time>
      </trkpt>
      <trkpt lat="50.6345" lon="5.51343">
        <ele>117</ele>
        <time>2019-01-19T23:37:08Z</time>
      </trkpt>
      <trkpt lat="50.63524" lon="5.51455">
        <ele>118</ele>
        <time>2019-01-19T23:38:08Z</time>
      </trkpt>
      <trkpt lat="50.63624" lon="5.51604">
        <ele>123</ele>
        <time>2019-01-19T23:39:08Z</time>
      </trkpt>
      <trkpt lat="50.63649" lon="5.51638">
        <ele>123</ele>
        <time>2019-01-19T23:40:08Z</time>
      </trkpt>
      <trkpt lat="50.63654" lon="5.51647">
        <ele>123</ele>
        <time>2019-01-19T23:41:08Z</time>
      </trkpt>
      <trkpt lat="50.63653" lon="5.51654">
        <ele>123</ele>
        <time>2019-01-19T23:42:08Z</time>
      </trkpt>
      <trkpt lat="50.63656" lon="5.51664">
        <ele>123</ele>
        <time>2019-01-19T23:43:08Z</time>
      </trkpt>
      <trkpt lat="50.63679" lon="5.51698">
        <ele>123</ele>
        <time>2019-01-19T23:44:08Z</time>
      </trkpt>
      <trkpt lat="50.63686" lon="5.51705">
        <ele>123</ele>
        <time>2019-01-19T23:45:08Z</time>
      </trkpt>
      <trkpt lat="50.63695" lon="5.51705">
        <ele>124</ele>
        <time>2019-01-19T23:46:08Z</time>
      </trkpt>
      <trkpt lat="50.63703" lon="5.51724">
        <ele>124</ele>
        <time>2019-01-19T23:47:08Z</time>
      </trkpt>
      <trkpt lat="50.63731" lon="5.51772">
        <ele>124</ele>
        <time>2019-01-19T23:48:08Z</time>
      </trkpt>
      <trkpt lat="50.63744" lon="5.51797">
        <ele>123</ele>
        <time>2019-01-19T23:49:08Z</time>
      </trkpt>
      <trkpt lat="50.63761" lon="5.51832">
        <ele>123</ele>
        <time>2019-01-19T23:50:08Z</time>
      </trkpt>
      <trkpt lat="50.63779" lon="5.51873">
        <ele>126</ele>
        <time>2019-01-19T23:51:08Z</time>
      </trkpt>
      <trkpt lat="50.63787" lon="5.5189">
        <ele>126</ele>
        <time>2019-01-19T23:52:08Z</time>
      </trkpt>
      <trkpt lat="50.63798" lon="5.5192">
        <ele>127</ele>
        <time>2019-01-19T23:53:08Z</time>
      </trkpt>
      <trkpt lat="50.63813" lon="5.51959">
        <ele>127</ele>
        <time>2019-01-19T23:54:08Z</time>
      </trkpt>
      <trkpt lat="50.63889" lon="5.52176">
        <ele>134</ele>
        <time>2019-01-19T23:55:08Z</time>
      </trkpt>
      <trkpt lat="50.63911" lon="5.52216">
        <ele>137</ele>
        <time>2019-01-19T23:56:08Z</time>
      </trkpt>
      <trkpt lat="50.63952" lon="5.52268">
        <ele>140</ele>
        <time>2019-01-19T23:57:08Z</time>
      </trkpt>
      <trkpt lat="50.63974" lon="5.52285">
        <ele>141</ele>
        <time>2019-01-19T23:58:08Z</time>
      </trkpt>
      <trkpt lat="50.64028" lon="5.52313">
        <ele>143</ele>
        <time>2019-01-19T23:59:08Z</time>
      </trkpt>
      <trkpt lat="50.64158" lon="5.52383">
        <ele>153</ele>
        <time>2019-01-20T00:00:08Z</time>
      </trkpt>
      <trkpt lat="50.64186" lon="5.52408">
        <ele>154</ele>
        <time>2019-01-20T00:01:08Z</time>
      </trkpt>
      <trkpt lat="50.64212" lon="5.52445">
        <ele>157</ele>
        <time>2019-01-20T00:02:08Z</time>
      </trkpt>
      <trkpt lat="50.64296" lon="5.52572">
        <ele>163</ele>
        <time>2019-01-20T00:03:08Z</time>
      </trkpt>
      <trkpt lat="50.64302" lon="5.52577">
        <ele>163</ele>
        <time>2019-01-20T00:04:08Z</time>
      </trkpt>
      <trkpt lat="50.64304" lon="5.52589">
        <ele>163</ele>
        <time>2019-01-20T00:05:08Z</time>
      </trkpt>
      <trkpt lat="50.64311" lon="5.52592">
        <ele>163</ele>
        <time>2019-01-20T00:06:08Z</time>
      </trkpt>
      <trkpt lat="50.64316" lon="5.52594">
        <ele>163</ele>
        <time>2019-01-20T00:07:08Z</time>
      </trkpt>
      <trkpt lat="50.64322" lon="5.52606">
        <ele>163</ele>
        <time>2019-01-20T00:08:08Z</time>
      </trkpt>
      <trkpt lat="50.64327" lon="5.52623">
        <ele>163</ele>
        <time>2019-01-20T00:09:08Z</time>
      </trkpt>
      <trkpt lat="50.64355" lon="5.52718">
        <ele>168</ele>
        <time>2019-01-20T00:10:08Z</time>
      </trkpt>
      <trkpt lat="50.64368" lon="5.52763">
        <ele>170</ele>
        <time>2019-01-20T00:11:08Z</time>
      </trkpt>
      <trkpt lat="50.64381" lon="5.52802">
        <ele>170</ele>
        <time>2019-01-20T00:12:08Z</time>
      </trkpt>
      <trkpt lat="50.64391" lon="5.52814">
        <ele>170</ele>
        <time>2019-01-20T00:13:08Z</time>
      </trkpt>
      <trkpt lat="50.6441" lon="5.5282">
        <ele>170</ele>
        <time>2019-01-20T00:14:08Z</time>
      </trkpt>
      <trkpt lat="50.64467" lon="5.52831">
        <ele>173</ele>
        <time>2019-01-20T00:15:08Z</time>
      </trkpt>
      <trkpt lat="50.64529" lon="5.52825">
        <ele>176</ele>
        <time>2019-01-20T00:16:08Z</time>
      </trkpt>
      <trkpt lat="50.64544" lon="5.5282">
        <ele>176</ele>
        <time>2019-01-20T00:17:08Z</time>
      </trkpt>
      <trkpt lat="50.64634" lon="5.52784">
        <ele>179</ele>
        <time>2019-01-20T00:18:08Z</time>
      </trkpt>
      <trkpt lat="50.64653" lon="5.52771">
        <ele>179</ele>
        <time>2019-01-20T00:19:08Z</time>
      </trkpt>
      <trkpt lat="50.64669" lon="5.52748">
        <ele>180</ele>
        <time>2019-01-20T00:20:08Z</time>
      </trkpt>
      <trkpt lat="50.64679" lon="5.52723">
        <ele>180</ele>
        <time>2019-01-20T00:21:08Z</time>
      </trkpt>
      <trkpt lat="50.64693" lon="5.52673">
        <ele>181</ele>
        <time>2019-01-20T00:22:08Z</time>
      </trkpt>
      <trkpt lat="50.6471" lon="5.52624">
        <ele>182</ele>
        <time>2019-01-20T00:23:08Z</time>
      </trkpt>
      <trkpt lat="50.64739" lon="5.52546">
        <ele>183</ele>
        <time>2019-01-20T00:24:08Z</time>
      </trkpt>
      <trkpt lat="50.64758" lon="5.5251">
        <ele>184</ele>
        <time>2019-01-20T00:25:08Z</time>
      </trkpt>
      <trkpt lat="50.64769" lon="5.52493">
        <ele>184</ele>
        <time>2019-01-20T00:26:08Z</time>
      </trkpt>
      <trkpt lat="50.64834" lon="5.5243">
        <ele>184</ele>
        <time>2019-01-20T00:27:08Z</time>
      </trkpt>
      <trkpt lat="50.6489" lon="5.52376">
        <ele>185</ele>
        <time>2019-01-20T00:28:08Z</time>
      </trkpt>
      <trkpt lat="50.64928" lon="5.52354">
        <ele>186</ele>
        <time>2019-01-20T00:29:08Z</time>
      </trkpt>
      <trkpt lat="50.64973" lon="5.52343">
        <ele>188</ele>
        <time>2019-01-20T00:30:08Z</time>
      </trkpt>
      <trkpt lat="50.64995" lon="5.52349">
        <ele>189</ele>
        <time>2019-01-20T00:31:08Z</time>
      </trkpt>
      <trkpt lat="50.65018" lon="5.52366">
        <ele>189</ele>
        <time>2019-01-20T00:32:08Z</time>
      </trkpt>
      <trkpt lat="50.65062" lon="5.52416">
        <ele>187</ele>
        <time>2019-01-20T00:33:08Z</time>
      </trkpt>
      <trkpt lat="50.65134" lon="5.52504">
        <ele>187</ele>
        <time>2019-01-20T00:34:08Z</time>
      </trkpt>
      <trkpt lat="50.65199" lon="5.52581">
        <ele>186</ele>
        <time>2019-01-20T00:35:08Z</time>
      </trkpt>
      <trkpt lat="50.65247" lon="5.52632">
        <ele>186</ele>
        <time>2019-01-20T00:36:08Z</time>
      </trkpt>
      <trkpt lat="50.65321" lon="5.52716">
        <ele>189</ele>
        <time>2019-01-20T00:37:08Z</time>
      </trkpt>
      <trkpt lat="50.65399" lon="5.52805">
        <ele>184</ele>
        <time>2019-01-20T00:38:08Z</time>
      </trkpt>
      <trkpt lat="50.65482" lon="5.52903">
        <ele>183</ele>
        <time>2019-01-20T00:39:08Z</time>
      </trkpt>
      <trkpt lat="50.65583" lon="5.53019">
        <ele>183</ele>
        <time>2019-01-20T00:40:08Z</time>
      </trkpt>
      <trkpt lat="50.65601" lon="5.53037">
        <ele>182</ele>
        <time>2019-01-20T00:41:08Z</time>
      </trkpt>
      <trkpt lat="50.65617" lon="5.53051">
        <ele>182</ele>
        <time>2019-01-20T00:42:08Z</time>
      </trkpt>
      <trkpt lat="50.65725" lon="5.53133">
        <ele>185</ele>
        <time>2019-01-20T00:43:08Z</time>
      </trkpt>
      <trkpt lat="50.65892" lon="5.53263">
        <ele>186</ele>
        <time>2019-01-20T00:44:08Z</time>
      </trkpt>
      <trkpt lat="50.65959" lon="5.53314">
        <ele>185</ele>
        <time>2019-01-20T00:45:08Z</time>
      </trkpt>
      <trkpt lat="50.66023" lon="5.53365">
        <ele>185</ele>
        <time>2019-01-20T00:46:08Z</time>
      </trkpt>
      <trkpt lat="50.66131" lon="5.53449">
        <ele>184</ele>
        <time>2019-01-20T00:47:08Z</time>
      </trkpt>
      <trkpt lat="50.66197" lon="5.535">
        <ele>184</ele>
        <time>2019-01-20T00:48:08Z</time>
      </trkpt>
      <trkpt lat="50.66276" lon="5.53562">
        <ele>183</ele>
        <time>2019-01-20T00:49:08Z</time>
      </trkpt>
      <trkpt lat="50.66376" lon="5.53643">
        <ele>182</ele>
        <time>2019-01-20T00:50:08Z</time>
      </trkpt>
      <trkpt lat="50.66483" lon="5.53727">
        <ele>178</ele>
        <time>2019-01-20T00:51:08Z</time>
      </trkpt>
      <trkpt lat="50.66593" lon="5.53815">
        <ele>177</ele>
        <time>2019-01-20T00:52:08Z</time>
      </trkpt>
      <trkpt lat="50.66668" lon="5.53873">
        <ele>175</ele>
        <time>2019-01-20T00:53:08Z</time>
      </trkpt>
      <trkpt lat="50.66762" lon="5.53949">
        <ele>174</ele>
        <time>2019-01-20T00:54:08Z</time>
      </trkpt>
      <trkpt lat="50.66789" lon="5.5397">
        <ele>173</ele>
        <time>2019-01-20T00:55:08Z</time>
      </trkpt>
      <trkpt lat="50.66842" lon="5.5401">
        <ele>172</ele>
        <time>2019-01-20T00:56:08Z</time>
      </trkpt>
      <trkpt lat="50.66934" lon="5.54083">
        <ele>173</ele>
        <time>2019-01-20T00:57:08Z</time>
      </trkpt>
      <trkpt lat="50.6704" lon="5.54167">
        <ele>171</ele>
        <time>2019-01-20T00:58:08Z</time>
      </trkpt>
      <trkpt lat="50.67119" lon="5.54228">
        <ele>171</ele>
        <time>2019-01-20T00:59:08Z</time>
      </trkpt>
      <trkpt lat="50.67197" lon="5.54291">
        <ele>171</ele>
        <time>2019-01-20T01:00:08Z</time>
      </trkpt>
      <trkpt lat="50.673" lon="5.5437">
        <ele>173</ele>
        <time>2019-01-20T01:01:08Z</time>
      </trkpt>
      <trkpt lat="50.67395" lon="5.54442">
        <ele>173</ele>
        <time>2019-01-20T01:02:08Z</time>
      </trkpt>
      <trkpt lat="50.67483" lon="5.54513">
        <ele>173</ele>
        <time>2019-01-20T01:03:08Z</time>
      </trkpt>
      <trkpt lat="50.67573" lon="5.54583">
        <ele>175</ele>
        <time>2019-01-20T01:04:08Z</time>
      </trkpt>
      <trkpt lat="50.67608" lon="5.54607">
        <ele>175</ele>
        <time>2019-01-20T01:05:08Z</time>
      </trkpt>
      <trkpt lat="50.67622" lon="5.54619">
        <ele>175</ele>
        <time>2019-01-20T01:06:08Z</time>
      </trkpt>
      <trkpt lat="50.67688" lon="5.54643">
        <ele>173</ele>
        <time>2019-01-20T01:07:08Z</time>
      </trkpt>
      <trkpt lat="50.67792" lon="5.54681">
        <ele>171</ele>
        <time>2019-01-20T01:08:08Z</time>
      </trkpt>
      <trkpt lat="50.6785" lon="5.547">
        <ele>170</ele>
        <time>2019-01-20T01:09:08Z</time>
      </trkpt>
      <trkpt lat="50.67868" lon="5.54708">
        <ele>170</ele>
        <time>2019-01-20T01:10:08Z</time>
      </trkpt>
      <trkpt lat="50.67888" lon="5.54722">
        <ele>169</ele>
        <time>2019-01-20T01:11:08Z</time>
      </trkpt>
      <trkpt lat="50.67998" lon="5.54793">
        <ele>168</ele>
        <time>2019-01-20T01:12:08Z</time>
      </trkpt>
      <trkpt lat="50.68034" lon="5.54814">
        <ele>168</ele>
        <time>2019-01-20T01:13:08Z</time>
      </trkpt>
      <trkpt lat="50.68061" lon="5.54825">
        <ele>168</ele>
        <time>2019-01-20T01:14:08Z</time>
      </trkpt>
      <trkpt lat="50.6812" lon="5.54841">
        <ele>168</ele>
        <time>2019-01-20T01:15:08Z</time>
      </trkpt>
      <trkpt lat="50.68195" lon="5.54858">
        <ele>166</ele>
        <time>2019-01-20T01:16:08Z</time>
      </trkpt>
      <trkpt lat="50.68257" lon="5.54878">
        <ele>166</ele>
        <time>2019-01-20T01:17:08Z</time>
      </trkpt>
      <trkpt lat="50.68368" lon="5.54932">
        <ele>165</ele>
        <time>2019-01-20T01:18:08Z</time>
      </trkpt>
      <trkpt lat="50.68411" lon="5.54956">
        <ele>165</ele>
        <time>2019-01-20T01:19:08Z</time>
      </trkpt>
      <trkpt lat="50.68452" lon="5.54988">
        <ele>166</ele>
        <time>2019-01-20T01:20:08Z</time>
      </trkpt>
      <trkpt lat="50.68514" lon="5.55063">
        <ele>166</ele>
        <time>2019-01-20T01:21:08Z</time>
      </trkpt>
      <trkpt lat="50.68541" lon="5.55112">
        <ele>166</ele>
        <time>2019-01-20T01:22:08Z</time>
      </trkpt>
      <trkpt lat="50.68573" lon="5.55201">
        <ele>168</ele>
        <time>2019-01-20T01:23:08Z</time>
      </trkpt>
      <trkpt lat="50.68585" lon="5.55235">
        <ele>169</ele>
        <time>2019-01-20T01:24:08Z</time>
      </trkpt>
      <trkpt lat="50.68613" lon="5.5529">
        <ele>169</ele>
        <time>2019-01-20T01:25:08Z</time>
      </trkpt>
      <trkpt lat="50.6867" lon="5.5539">
        <ele>168</ele>
        <time>2019-01-20T01:26:08Z</time>
      </trkpt>
      <trkpt lat="50.68707" lon="5.55458">
        <ele>168</ele>
        <time>2019-01-20T01:27:08Z</time>
      </trkpt>
      <trkpt lat="50.68725" lon="5.55488">
        <ele>168</ele>
        <time>2019-01-20T01:28:08Z</time>
      </trkpt>
      <trkpt lat="50.68778" lon="5.55522">
        <ele>168</ele>
        <time>2019-01-20T01:29:08Z</time>
      </trkpt>
      <trkpt lat="50.68804" lon="5.55542">
        <ele>169</ele>
        <time>2019-01-20T01:30:08Z</time>
      </trkpt>
      <trkpt lat="50.68819" lon="5.55552">
        <ele>169</ele>
        <time>2019-01-20T01:31:08Z</time>
      </trkpt>
      <trkpt lat="50.6883" lon="5.55563">
        <ele>169</ele>
        <time>2019-01-20T01:32:08Z</time>
      </trkpt>
      <trkpt lat="50.68863" lon="5.55605">
        <ele>168</ele>
        <time>2019-01-20T01:33:08Z</time>
      </trkpt>
      <trkpt lat="50.68956" lon="5.55715">
        <ele>164</ele>
        <time>2019-01-20T01:34:08Z</time>
      </trkpt>
      <trkpt lat="50.68998" lon="5.55767">
        <ele>161</ele>
        <time>2019-01-20T01:35:08Z</time>
      </trkpt>
      <trkpt lat="50.69033" lon="5.5582">
        <ele>162</ele>
        <time>2019-01-20T01:36:08Z</time>
      </trkpt>
      <trkpt lat="50.6907" lon="5.5588">
        <ele>163</ele>
        <time>2019-01-20T01:37:08Z</time>
      </trkpt>
      <trkpt lat="50.69147" lon="5.5602">
        <ele>164</ele>
        <time>2019-01-20T01:38:08Z</time>
      </trkpt>
      <trkpt lat="50.69164" lon="5.56052">
        <ele>165</ele>
        <time>2019-01-20T01:39:08Z</time>
      </trkpt>
      <trkpt lat="50.69202" lon="5.5612">
        <ele>167</ele>
        <time>2019-01-20T01:40:08Z</time>
      </trkpt>
      <trkpt lat="50.69235" lon="5.5618">
        <ele>167</ele>
        <time>2019-01-20T01:41:08Z</time>
      </trkpt>
      <trkpt lat="50.6926" lon="5.56229">
        <ele>167</ele>
        <time>2019-01-20T01:42:08Z</time>
      </trkpt>
      <trkpt lat="50.69308" lon="5.56315">
        <ele>167</ele>
        <time>2019-01-20T01:43:08Z</time>
      </trkpt>
      <trkpt lat="50.6936" lon="5.56382">
        <ele>165</ele>
        <time>2019-01-20T01:44:08Z</time>
      </trkpt>
      <trkpt lat="50.69372" lon="5.56395">
        <ele>165</ele>
        <time>2019-01-20T01:45:08Z</time>
      </trkpt>
      <trkpt lat="50.6938" lon="5.56411">
        <ele>165</ele>
        <time>2019-01-20T01:46:08Z</time>
      </trkpt>
      <trkpt lat="50.69418" lon="5.56481">
        <ele>164</ele>
        <time>2019-01-20T01:47:08Z</time>
      </trkpt>
      <trkpt lat="50.69462" lon="5.56532">
        <ele>163</ele>
        <time>2019-01-20T01:48:08Z</time>
      </trkpt>
      <trkpt lat="50.69475" lon="5.56542">
        <ele>162</ele>
        <time>2019-01-20T01:49:08Z</time>
      </trkpt>
      <trkpt lat="50.69568" lon="5.56628">
        <ele>163</ele>
        <time>2019-01-20T01:50:08Z</time>
      </trkpt>
      <trkpt lat="50.69649" lon="5.56699">
        <ele>162</ele>
        <time>2019-01-20T01:51:08Z</time>
      </trkpt>
      <trkpt lat="50.6969" lon="5.56733">
        <ele>163</ele>
        <time>2019-01-20T01:52:08Z</time>
      </trkpt>
      <trkpt lat="50.69703" lon="5.56738">
        <ele>164</ele>
        <time>2019-01-20T01:53:08Z</time>
      </trkpt>
      <trkpt lat="50.69706" lon="5.56748">
        <ele>164</ele>
        <time>2019-01-20T01:54:08Z</time>
      </trkpt>
      <trkpt lat="50.69711" lon="5.5675">
        <ele>164</ele>
        <time>2019-01-20T01:55:08Z</time>
      </trkpt>
      <trkpt lat="50.69717" lon="5.56749">
        <ele>164</ele>
        <time>2019-01-20T01:56:08Z</time>
      </trkpt>
      <trkpt lat="50.69718" lon="5.5676">
        <ele>164</ele>
        <time>2019-01-20T01:57:08Z</time>
      </trkpt>
      <trkpt lat="50.69722" lon="5.56768">
        <ele>164</ele>
        <time>2019-01-20T01:58:08Z</time>
      </trkpt>
      <trkpt lat="50.69729" lon="5.56767">
        <ele>165</ele>
        <time>2019-01-20T01:59:08Z</time>
      </trkpt>
      <trkpt lat="50.69732" lon="5.56758">
        <ele>165</ele>
        <time>2019-01-20T02:00:08Z</time>
      </trkpt>
      <trkpt lat="50.69743" lon="5.56757">
        <ele>165</ele>
        <time>2019-01-20T02:01:08Z</time>
      </trkpt>
      <trkpt lat="50.69771" lon="5.56761">
        <ele>165</ele>
        <time>2019-01-20T02:02:08Z</time>
      </trkpt>
      <trkpt lat="50.69815" lon="5.5676">
        <ele>166</ele>
        <time>2019-01-20T02:03:08Z</time>
      </trkpt>
      <trkpt lat="50.69853" lon="5.5676">
        <ele>166</ele>
        <time>2019-01-20T02:04:08Z</time>
      </trkpt>
      <trkpt lat="50.69944" lon="5.56759">
        <ele>165</ele>
        <time>2019-01-20T02:05:08Z</time>
      </trkpt>
      <trkpt lat="50.69965" lon="5.56759">
        <ele>165</ele>
        <time>2019-01-20T02:06:08Z</time>
      </trkpt>
      <trkpt lat="50.7002" lon="5.56763">
        <ele>164</ele>
        <time>2019-01-20T02:07:08Z</time>
      </trkpt>
      <trkpt lat="50.70064" lon="5.56771">
        <ele>165</ele>
        <time>2019-01-20T02:08:08Z</time>
      </trkpt>
      <trkpt lat="50.70099" lon="5.56781">
        <ele>165</ele>
        <time>2019-01-20T02:09:08Z</time>
      </trkpt>
      <trkpt lat="50.70132" lon="5.56791">
        <ele>165</ele>
        <time>2019-01-20T02:10:08Z</time>
      </trkpt>
      <trkpt lat="50.70148" lon="5.56798">
        <ele>165</ele>
        <time>2019-01-20T02:11:08Z</time>
      </trkpt>
      <trkpt lat="50.70205" lon="5.5682">
        <ele>164</ele>
        <time>2019-01-20T02:12:08Z</time>
      </trkpt>
      <trkpt lat="50.7026" lon="5.56845">
        <ele>164</ele>
        <time>2019-01-20T02:13:08Z</time>
      </trkpt>
      <trkpt lat="50.70301" lon="5.5686">
        <ele>165</ele>
        <time>2019-01-20T02:14:08Z</time>
      </trkpt>
      <trkpt lat="50.70325" lon="5.56862">
        <ele>165</ele>
        <time>2019-01-20T02:15:08Z</time>
      </trkpt>
      <trkpt lat="50.70349" lon="5.56861">
        <ele>165</ele>
        <time>2019-01-20T02:16:08Z</time>
      </trkpt>
      <trkpt lat="50.70419" lon="5.56834">
        <ele>166</ele>
        <time>2019-01-20T02:17:08Z</time>
      </trkpt>
      <trkpt lat="50.70568" lon="5.56777">
        <ele>163</ele>
        <time>2019-01-20T02:18:08Z</time>
      </trkpt>
      <trkpt lat="50.70658" lon="5.56744">
        <ele>161</ele>
        <time>2019-01-20T02:19:08Z</time>
      </trkpt>
      <trkpt lat="50.70733" lon="5.56712">
        <ele>159</ele>
        <time>2019-01-20T02:20:08Z</time>
      </trkpt>
      <trkpt lat="50.7091" lon="5.56645">
        <ele>152</ele>
        <time>2019-01-20T02:21:08Z</time>
      </trkpt>
      <trkpt lat="50.71071" lon="5.56583">
        <ele>154</ele>
        <time>2019-01-20T02:22:08Z</time>
      </trkpt>
      <trkpt lat="50.71127" lon="5.56564">
        <ele>153</ele>
        <time>2019-01-20T02:23:08Z</time>
      </trkpt>
      <trkpt lat="50.71163" lon="5.5656">
        <ele>153</ele>
        <time>2019-01-20T02:24:08Z</time>
      </trkpt>
      <trkpt lat="50.71192" lon="5.56561">
        <ele>154</ele>
        <time>2019-01-20T02:25:08Z</time>
      </trkpt>
      <trkpt lat="50.71229" lon="5.5657">
        <ele>154</ele>
        <time>2019-01-20T02:26:08Z</time>
      </trkpt>
      <trkpt lat="50.71357" lon="5.56609">
        <ele>152</ele>
        <time>2019-01-20T02:27:08Z</time>
      </trkpt>
      <trkpt lat="50.71385" lon="5.56622">
        <ele>151</ele>
        <time>2019-01-20T02:28:08Z</time>
      </trkpt>
      <trkpt lat="50.71551" lon="5.56707">
        <ele>150</ele>
        <time>2019-01-20T02:29:08Z</time>
      </trkpt>
      <trkpt lat="50.71623" lon="5.56746">
        <ele>151</ele>
        <time>2019-01-20T02:30:08Z</time>
      </trkpt>
      <trkpt lat="50.71652" lon="5.56766">
        <ele>151</ele>
        <time>2019-01-20T02:31:08Z</time>
      </trkpt>
      <trkpt lat="50.71695" lon="5.56824">
        <ele>152</ele>
        <time>2019-01-20T02:32:08Z</time>
      </trkpt>
      <trkpt lat="50.71705" lon="5.56838">
        <ele>152</ele>
        <time>2019-01-20T02:33:08Z</time>
      </trkpt>
      <trkpt lat="50.71781" lon="5.56921">
        <ele>151</ele>
        <time>2019-01-20T02:34:08Z</time>
      </trkpt>
      <trkpt lat="50.71805" lon="5.56941">
        <ele>152</ele>
        <time>2019-01-20T02:35:08Z</time>
      </trkpt>
      <trkpt lat="50.71833" lon="5.56956">
        <ele>152</ele>
        <time>2019-01-20T02:36:08Z</time>
      </trkpt>
      <trkpt lat="50.71853" lon="5.56963">
        <ele>151</ele>
        <time>2019-01-20T02:37:08Z</time>
      </trkpt>
      <trkpt lat="50.7187" lon="5.56964">
        <ele>151</ele>
        <time>2019-01-20T02:38:08Z</time>
      </trkpt>
      <trkpt lat="50.72" lon="5.56955">
        <ele>149</ele>
        <time>2019-01-20T02:39:08Z</time>
      </trkpt>
      <trkpt lat="50.72046" lon="5.56964">
        <ele>148</ele>
        <time>2019-01-20T02:40:08Z</time>
      </trkpt>
      <trkpt lat="50.72077" lon="5.56972">
        <ele>147</ele>
        <time>2019-01-20T02:41:08Z</time>
      </trkpt>
      <trkpt lat="50.721" lon="5.56972">
        <ele>147</ele>
        <time>2019-01-20T02:42:08Z</time>
      </trkpt>
      <trkpt lat="50.72114" lon="5.56973">
        <ele>147</ele>
        <time>2019-01-20T02:43:08Z</time>
      </trkpt>
      <trkpt lat="50.7213" lon="5.56971">
        <ele>147</ele>
        <time>2019-01-20T02:44:08Z</time>
      </trkpt>
      <trkpt lat="50.72223" lon="5.56964">
        <ele>148</ele>
        <time>2019-01-20T02:45:08Z</time>
      </trkpt>
      <trkpt lat="50.72333" lon="5.56948">
        <ele>152</ele>
        <time>2019-01-20T02:46:08Z</time>
      </trkpt>
      <trkpt lat="50.72365" lon="5.56952">
        <ele>153</ele>
        <time>2019-01-20T02:47:08Z</time>
      </trkpt>
      <trkpt lat="50.72398" lon="5.56961">
        <ele>154</ele>
        <time>2019-01-20T02:48:08Z</time>
      </trkpt>
      <trkpt lat="50.72475" lon="5.56988">
        <ele>155</ele>
        <time>2019-01-20T02:49:08Z</time>
      </trkpt>
      <trkpt lat="50.72501" lon="5.56997">
        <ele>155</ele>
        <time>2019-01-20T02:50:08Z</time>
      </trkpt>
      <trkpt lat="50.72581" lon="5.57002">
        <ele>155</ele>
        <time>2019-01-20T02:51:08Z</time>
      </trkpt>
      <trkpt lat="50.72617" lon="5.57012">
        <ele>155</ele>
        <time>2019-01-20T02:52:08Z</time>
      </trkpt>
      <trkpt lat="50.72629" lon="5.57014">
        <ele>155</ele>
        <time>2019-01-20T02:53:08Z</time>
      </trkpt>
      <trkpt lat="50.72648" lon="5.57018">
        <ele>155</ele>
        <time>2019-01-20T02:54:08Z</time>
      </trkpt>
      <trkpt lat="50.72728" lon="5.57003">
        <ele>153</ele>
        <time>2019-01-20T02:55:08Z</time>
      </trkpt>
      <trkpt lat="50.72785" lon="5.56995">
        <ele>152</ele>
        <time>2019-01-20T02:56:08Z</time>
      </trkpt>
      <trkpt lat="50.72819" lon="5.5699">
        <ele>151</ele>
        <time>2019-01-20T02:57:08Z</time>
      </trkpt>
      <trkpt lat="50.72839" lon="5.56984">
        <ele>151</ele>
        <time>2019-01-20T02:58:08Z</time>
      </trkpt>
      <trkpt lat="50.72864" lon="5.56965">
        <ele>151</ele>
        <time>2019-01-20T02:59:08Z</time>
      </trkpt>
      <trkpt lat="50.72914" lon="5.56915">
        <ele>150</ele>
        <time>2019-01-20T03:00:08Z</time>
      </trkpt>
      <trkpt lat="50.72967" lon="5.56821">
        <ele>148</ele>
        <time>2019-01-20T03:01:08Z</time>
      </trkpt>
      <trkpt lat="50.72993" lon="5.56776">
        <ele>148</ele>
        <time>2019-01-20T03:02:08Z</time>
      </trkpt>
      <trkpt lat="50.73059" lon="5.5669">
        <ele>147</ele>
        <time>2019-01-20T03:03:08Z</time>
      </trkpt>
      <trkpt lat="50.73097" lon="5.56628">
        <ele>146</ele>
        <time>2019-01-20T03:04:08Z</time>
      </trkpt>
      <trkpt lat="50.73125" lon="5.56582">
        <ele>145</ele>
        <time>2019-01-20T03:05:08Z</time>
      </trkpt>
      <trkpt lat="50.73147" lon="5.56551">
        <ele>145</ele>
        <time>2019-01-20T03:06:08Z</time>
      </trkpt>
      <trkpt lat="50.73191" lon="5.56489">
        <ele>144</ele>
        <time>2019-01-20T03:07:08Z</time>
      </trkpt>
      <trkpt lat="50.73239" lon="5.56423">
        <ele>145</ele>
        <time>2019-01-20T03:08:08Z</time>
      </trkpt>
      <trkpt lat="50.73316" lon="5.56327">
        <ele>144</ele>
        <time>2019-01-20T03:09:08Z</time>
      </trkpt>
      <trkpt lat="50.73347" lon="5.56277">
        <ele>144</ele>
        <time>2019-01-20T03:10:08Z</time>
      </trkpt>
      <trkpt lat="50.73396" lon="5.562">
        <ele>142</ele>
        <time>2019-01-20T03:11:08Z</time>
      </trkpt>
      <trkpt lat="50.73428" lon="5.56152">
        <ele>142</ele>
        <time>2019-01-20T03:12:08Z</time>
      </trkpt>
      <trkpt lat="50.73446" lon="5.56126">
        <ele>141</ele>
        <time>2019-01-20T03:13:08Z</time>
      </trkpt>
      <trkpt lat="50.73501" lon="5.5607">
        <ele>141</ele>
        <time>2019-01-20T03:14:08Z</time>
      </trkpt>
      <trkpt lat="50.7355" lon="5.56021">
        <ele>140</ele>
        <time>2019-01-20T03:15:08Z</time>
      </trkpt>
      <trkpt lat="50.73716" lon="5.55863">
        <ele>139</ele>
        <time>2019-01-20T03:16:08Z</time>
      </trkpt>
      <trkpt lat="50.73785" lon="5.55799">
        <ele>139</ele>
        <time>2019-01-20T03:17:08Z</time>
      </trkpt>
      <trkpt lat="50.73811" lon="5.55762">
        <ele>139</ele>
        <time>2019-01-20T03:18:08Z</time>
      </trkpt>
      <trkpt lat="50.73857" lon="5.55682">
        <ele>137</ele>
        <time>2019-01-20T03:19:08Z</time>
      </trkpt>
      <trkpt lat="50.73898" lon="5.55612">
        <ele>135</ele>
        <time>2019-01-20T03:20:08Z</time>
      </trkpt>
      <trkpt lat="50.73919" lon="5.55587">
        <ele>134</ele>
        <time>2019-01-20T03:21:08Z</time>
      </trkpt>
      <trkpt lat="50.73937" lon="5.55568">
        <ele>134</ele>
        <time>2019-01-20T03:22:08Z</time>
      </trkpt>
      <trkpt lat="50.73992" lon="5.55519">
        <ele>134</ele>
        <time>2019-01-20T03:23:08Z</time>
      </trkpt>
      <trkpt lat="50.74077" lon="5.55447">
        <ele>133</ele>
        <time>2019-01-20T03:24:08Z</time>
      </trkpt>
      <trkpt lat="50.74242" lon="5.5532">
        <ele>124</ele>
        <time>2019-01-20T03:25:08Z</time>
      </trkpt>
      <trkpt lat="50.74297" lon="5.55286">
        <ele>120</ele>
        <time>2019-01-20T03:26:08Z</time>
      </trkpt>
      <trkpt lat="50.74335" lon="5.55267">
        <ele>116</ele>
        <time>2019-01-20T03:27:08Z</time>
      </trkpt>
      <trkpt lat="50.74353" lon="5.55261">
        <ele>114</ele>
        <time>2019-01-20T03:28:08Z</time>
      </trkpt>
      <trkpt lat="50.74378" lon="5.55258">
        <ele>111</ele>
        <time>2019-01-20T03:29:08Z</time>
      </trkpt>
      <trkpt lat="50.74411" lon="5.55261">
        <ele>108</ele>
        <time>2019-01-20T03:30:08Z</time>
      </trkpt>
      <trkpt lat="50.74477" lon="5.55294">
        <ele>104</ele>
        <time>2019-01-20T03:31:08Z</time>
      </trkpt>
      <trkpt lat="50.74556" lon="5.55333">
        <ele>98</ele>
        <time>2019-01-20T03:32:08Z</time>
      </trkpt>
      <trkpt lat="50.74586" lon="5.55347">
        <ele>97</ele>
        <time>2019-01-20T03:33:08Z</time>
      </trkpt>
      <trkpt lat="50.74679" lon="5.55386">
        <ele>91</ele>
        <time>2019-01-20T03:34:08Z</time>
      </trkpt>
      <trkpt lat="50.74744" lon="5.55391">
        <ele>86</ele>
        <time>2019-01-20T03:35:08Z</time>
      </trkpt>
      <trkpt lat="50.74763" lon="5.55388">
        <ele>85</ele>
        <time>2019-01-20T03:36:08Z</time>
      </trkpt>
      <trkpt lat="50.74793" lon="5.5538">
        <ele>83</ele>
        <time>2019-01-20T03:37:08Z</time>
      </trkpt>
      <trkpt lat="50.74852" lon="5.5536">
        <ele>80</ele>
        <time>2019-01-20T03:38:08Z</time>
      </trkpt>
      <trkpt lat="50.75038" lon="5.55292">
        <ele>80</ele>
        <time>2019-01-20T03:39:08Z</time>
      </trkpt>
      <trkpt lat="50.75107" lon="5.55273">
        <ele>82</ele>
        <time>2019-01-20T03:40:08Z</time>
      </trkpt>
      <trkpt lat="50.75106" lon="5.55238">
        <ele>81</ele>
        <time>2019-01-20T03:41:08Z</time>
      </trkpt>
      <trkpt lat="50.7511" lon="5.55212">
        <ele>81</ele>
        <time>2019-01-20T03:42:08Z</time>
      </trkpt>
      <trkpt lat="50.75117" lon="5.55189">
        <ele>81</ele>
        <time>2019-01-20T03:43:08Z</time>
      </trkpt>
      <trkpt lat="50.75127" lon="5.55168">
        <ele>82</ele>
        <time>2019-01-20T03:44:08Z</time>
      </trkpt>
      <trkpt lat="50.75155" lon="5.55133">
        <ele>82</ele>
        <time>2019-01-20T03:45:08Z</time>
      </trkpt>
      <trkpt lat="50.75181" lon="5.55104">
        <ele>83</ele>
        <time>2019-01-20T03:46:08Z</time>
      </trkpt>
      <trkpt lat="50.75246" lon="5.55029">
        <ele>83</ele>
        <time>2019-01-20T03:47:08Z</time>
      </trkpt>
      <trkpt lat="50.75263" lon="5.55001">
        <ele>84</ele>
        <time>2019-01-20T03:48:08Z</time>
      </trkpt>
      <trkpt lat="50.75273" lon="5.54983">
        <ele>86</ele>
        <time>2019-01-20T03:49:08Z</time>
      </trkpt>
      <trkpt lat="50.75287" lon="5.5494">
        <ele>88</ele>
        <time>2019-01-20T03:50:08Z</time>
      </trkpt>
      <trkpt lat="50.753" lon="5.54877">
        <ele>88</ele>
        <time>2019-01-20T03:51:08Z</time>
      </trkpt>
      <trkpt lat="50.75315" lon="5.54817">
        <ele>87</ele>
        <time>2019-01-20T03:52:08Z</time>
      </trkpt>
      <trkpt lat="50.75332" lon="5.54778">
        <ele>86</ele>
        <time>2019-01-20T03:53:08Z</time>
      </trkpt>
      <trkpt lat="50.75358" lon="5.54725">
        <ele>87</ele>
        <time>2019-01-20T03:54:08Z</time>
      </trkpt>
      <trkpt lat="50.75395" lon="5.5465">
        <ele>86</ele>
        <time>2019-01-20T03:55:08Z</time>
      </trkpt>
      <trkpt lat="50.75412" lon="5.54628">
        <ele>86</ele>
        <time>2019-01-20T03:56:08Z</time>
      </trkpt>
      <trkpt lat="50.7545" lon="5.546">
        <ele>88</ele>
        <time>2019-01-20T03:57:08Z</time>
      </trkpt>
      <trkpt lat="50.75457" lon="5.54593">
        <ele>88</ele>
        <time>2019-01-20T03:58:08Z</time>
      </trkpt>
      <trkpt lat="50.75502" lon="5.54536">
        <ele>87</ele>
        <time>2019-01-20T03:59:08Z</time>
      </trkpt>
      <trkpt lat="50.75522" lon="5.54514">
        <ele>87</ele>
        <time>2019-01-20T04:00:08Z</time>
      </trkpt>
      <trkpt lat="50.75589" lon="5.54447">
        <ele>88</ele>
        <time>2019-01-20T04:01:08Z</time>
      </trkpt>
      <trkpt lat="50.75637" lon="5.54399">
        <ele>88</ele>
        <time>2019-01-20T04:02:08Z</time>
      </trkpt>
      <trkpt lat="50.7565" lon="5.54364">
        <ele>87</ele>
        <time>2019-01-20T04:03:08Z</time>
      </trkpt>
      <trkpt lat="50.75657" lon="5.5434">
        <ele>87</ele>
        <time>2019-01-20T04:04:08Z</time>
      </trkpt>
      <trkpt lat="50.75676" lon="5.54269">
        <ele>87</ele>
        <time>2019-01-20T04:05:08Z</time>
      </trkpt>
      <trkpt lat="50.75704" lon="5.54165">
        <ele>89</ele>
        <time>2019-01-20T04:06:08Z</time>
      </trkpt>
      <trkpt lat="50.7571" lon="5.54132">
        <ele>89</ele>
        <time>2019-01-20T04:07:08Z</time>
      </trkpt>
      <trkpt lat="50.75722" lon="5.54058">
        <ele>88</ele>
        <time>2019-01-20T04:08:08Z</time>
      </trkpt>
      <trkpt lat="50.75727" lon="5.54014">
        <ele>87</ele>
        <time>2019-01-20T04:09:08Z</time>
      </trkpt>
      <trkpt lat="50.75737" lon="5.53887">
        <ele>84</ele>
        <time>2019-01-20T04:10:08Z</time>
      </trkpt>
      <trkpt lat="50.75752" lon="5.53682">
        <ele>85</ele>
        <time>2019-01-20T04:11:08Z</time>
      </trkpt>
      <trkpt lat="50.75768" lon="5.53507">
        <ele>87</ele>
        <time>2019-01-20T04:12:08Z</time>
      </trkpt>
      <trkpt lat="50.75787" lon="5.53357">
        <ele>90</ele>
        <time>2019-01-20T04:13:08Z</time>
      </trkpt>
      <trkpt lat="50.75809" lon="5.53196">
        <ele>90</ele>
        <time>2019-01-20T04:14:08Z</time>
      </trkpt>
      <trkpt lat="50.75817" lon="5.53155">
        <ele>90</ele>
        <time>2019-01-20T04:15:08Z</time>
      </trkpt>
      <trkpt lat="50.75836" lon="5.53095">
        <ele>88</ele>
        <time>2019-01-20T04:16:08Z</time>
      </trkpt>
      <trkpt lat="50.75851" lon="5.53058">
        <ele>89</ele>
        <time>2019-01-20T04:17:08Z</time>
      </trkpt>
      <trkpt lat="50.75868" lon="5.53025">
        <ele>90</ele>
        <time>2019-01-20T04:18:08Z</time>
      </trkpt>
      <trkpt lat="50.7588" lon="5.53005">
        <ele>91</ele>
        <time>2019-01-20T04:19:08Z</time>
      </trkpt>
      <trkpt lat="50.75908" lon="5.52967">
        <ele>92</ele>
        <time>2019-01-20T04:20:08Z</time>
      </trkpt>
      <trkpt lat="50.75926" lon="5.52944">
        <ele>92</ele>
        <time>2019-01-20T04:21:08Z</time>
      </trkpt>
      <trkpt lat="50.75946" lon="5.52921">
        <ele>92</ele>
        <time>2019-01-20T04:22:08Z</time>
      </trkpt>
      <trkpt lat="50.75962" lon="5.52904">
        <ele>93</ele>
        <time>2019-01-20T04:23:08Z</time>
      </trkpt>
      <trkpt lat="50.76016" lon="5.52854">
        <ele>93</ele>
        <time>2019-01-20T04:24:08Z</time>
      </trkpt>
      <trkpt lat="50.76074" lon="5.52803">
        <ele>92</ele>
        <time>2019-01-20T04:25:08Z</time>
      </trkpt>
      <trkpt lat="50.76097" lon="5.52784">
        <ele>90</ele>
        <time>2019-01-20T04:26:08Z</time>
      </trkpt>
      <trkpt lat="50.76124" lon="5.52774">
        <ele>88</ele>
        <time>2019-01-20T04:27:08Z</time>
      </trkpt>
      <trkpt lat="50.76139" lon="5.52775">
        <ele>88</ele>
        <time>2019-01-20T04:28:08Z</time>
      </trkpt>
      <trkpt lat="50.76162" lon="5.5279">
        <ele>88</ele>
        <time>2019-01-20T04:29:08Z</time>
      </trkpt>
      <trkpt lat="50.76196" lon="5.52817">
        <ele>89</ele>
        <time>2019-01-20T04:30:08Z</time>
      </trkpt>
      <trkpt lat="50.76227" lon="5.52841">
        <ele>89</ele>
        <time>2019-01-20T04:31:08Z</time>
      </trkpt>
      <trkpt lat="50.76261" lon="5.5287">
        <ele>89</ele>
        <time>2019-01-20T04:32:08Z</time>
      </trkpt>
      <trkpt lat="50.76283" lon="5.52901">
        <ele>89</ele>
        <time>2019-01-20T04:33:08Z</time>
      </trkpt>
      <trkpt lat="50.7631" lon="5.52947">
        <ele>89</ele>
        <time>2019-01-20T04:34:08Z</time>
      </trkpt>
      <trkpt lat="50.76357" lon="5.53">
        <ele>88</ele>
        <time>2019-01-20T04:35:08Z</time>
      </trkpt>
      <trkpt lat="50.76409" lon="5.53049">
        <ele>87</ele>
        <time>2019-01-20T04:36:08Z</time>
      </trkpt>
      <trkpt lat="50.76445" lon="5.53082">
        <ele>88</ele>
        <time>2019-01-20T04:37:08Z</time>
      </trkpt>
      <trkpt lat="50.76501" lon="5.53127">
        <ele>91</ele>
        <time>2019-01-20T04:38:08Z</time>
      </trkpt>
      <trkpt lat="50.76522" lon="5.53141">
        <ele>92</ele>
        <time>2019-01-20T04:39:08Z</time>
      </trkpt>
      <trkpt lat="50.76531" lon="5.53141">
        <ele>92</ele>
        <time>2019-01-20T04:40:08Z</time>
      </trkpt>
      <trkpt lat="50.76616" lon="5.53095">
        <ele>89</ele>
        <time>2019-01-20T04:41:08Z</time>
      </trkpt>
      <trkpt lat="50.76667" lon="5.53058">
        <ele>88</ele>
        <time>2019-01-20T04:42:08Z</time>
      </trkpt>
      <trkpt lat="50.76667" lon="5.53032">
        <ele>87</ele>
        <time>2019-01-20T04:43:08Z</time>
      </trkpt>
      <trkpt lat="50.76686" lon="5.5297">
        <ele>86</ele>
        <time>2019-01-20T04:44:08Z</time>
      </trkpt>
      <trkpt lat="50.767" lon="5.52949">
        <ele>86</ele>
        <time>2019-01-20T04:45:08Z</time>
      </trkpt>
      <trkpt lat="50.76745" lon="5.5288">
        <ele>87</ele>
        <time>2019-01-20T04:46:08Z</time>
      </trkpt>
      <trkpt lat="50.7676" lon="5.52847">
        <ele>87</ele>
        <time>2019-01-20T04:47:08Z</time>
      </trkpt>
      <trkpt lat="50.7677" lon="5.52824">
        <ele>87</ele>
        <time>2019-01-20T04:48:08Z</time>
      </trkpt>
      <trkpt lat="50.76807" lon="5.52714">
        <ele>88</ele>
        <time>2019-01-20T04:49:08Z</time>
      </trkpt>
      <trkpt lat="50.76836" lon="5.52579">
        <ele>90</ele>
        <time>2019-01-20T04:50:08Z</time>
      </trkpt>
      <trkpt lat="50.76878" lon="5.52434">
        <ele>92</ele>
        <time>2019-01-20T04:51:08Z</time>
      </trkpt>
      <trkpt lat="50.7682" lon="5.52384">
        <ele>89</ele>
        <time>2019-01-20T04:52:08Z</time>
      </trkpt>
      <trkpt lat="50.76813" lon="5.5237">
        <ele>89</ele>
        <time>2019-01-20T04:53:08Z</time>
      </trkpt>
      <trkpt lat="50.76809" lon="5.52355">
        <ele>89</ele>
        <time>2019-01-20T04:54:08Z</time>
      </trkpt>
      <trkpt lat="50.7681" lon="5.52333">
        <ele>90</ele>
        <time>2019-01-20T04:55:08Z</time>
      </trkpt>
      <trkpt lat="50.76832" lon="5.52222">
        <ele>88</ele>
        <time>2019-01-20T04:56:08Z</time>
      </trkpt>
      <trkpt lat="50.76843" lon="5.5217">
        <ele>87</ele>
        <time>2019-01-20T04:57:08Z</time>
      </trkpt>
      <trkpt lat="50.76844" lon="5.52159">
        <ele>87</ele>
        <time>2019-01-20T04:58:08Z</time>
      </trkpt>
      <trkpt lat="50.76842" lon="5.52148">
        <ele>87</ele>
        <time>2019-01-20T04:59:08Z</time>
      </trkpt>
      <trkpt lat="50.76835" lon="5.52134">
        <ele>87</ele>
        <time>2019-01-20T05:00:08Z</time>
      </trkpt>
      <trkpt lat="50.76831" lon="5.52116">
        <ele>86</ele>
        <time>2019-01-20T05:01:08Z</time>
      </trkpt>
      <trkpt lat="50.76852" lon="5.51875">
        <ele>86</ele>
        <time>2019-01-20T05:02:08Z</time>
      </trkpt>
      <trkpt lat="50.7685" lon="5.5186">
        <ele>86</ele>
        <time>2019-01-20T05:03:08Z</time>
      </trkpt>
      <trkpt lat="50.76821" lon="5.51827">
        <ele>86</ele>
        <time>2019-01-20T05:04:08Z</time>
      </trkpt>
      <trkpt lat="50.76811" lon="5.51814">
        <ele>86</ele>
        <time>2019-01-20T05:05:08Z</time>
      </trkpt>
      <trkpt lat="50.76812" lon="5.51798">
        <ele>86</ele>
        <time>2019-01-20T05:06:08Z</time>
      </trkpt>
      <trkpt lat="50.76822" lon="5.51773">
        <ele>86</ele>
        <time>2019-01-20T05:07:08Z</time>
      </trkpt>
      <trkpt lat="50.76831" lon="5.51741">
        <ele>86</ele>
        <time>2019-01-20T05:08:08Z</time>
      </trkpt>
      <trkpt lat="50.76843" lon="5.5169">
        <ele>86</ele>
        <time>2019-01-20T05:09:08Z</time>
      </trkpt>
      <trkpt lat="50.76853" lon="5.51646">
        <ele>87</ele>
        <time>2019-01-20T05:10:08Z</time>
      </trkpt>
      <trkpt lat="50.76859" lon="5.51604">
        <ele>87</ele>
        <time>2019-01-20T05:11:08Z</time>
      </trkpt>
      <trkpt lat="50.76864" lon="5.51534">
        <ele>87</ele>
        <time>2019-01-20T05:12:08Z</time>
      </trkpt>
      <trkpt lat="50.76868" lon="5.51474">
        <ele>86</ele>
        <time>2019-01-20T05:13:08Z</time>
      </trkpt>
      <trkpt lat="50.76867" lon="5.5145">
        <ele>85</ele>
        <time>2019-01-20T05:14:08Z</time>
      </trkpt>
      <trkpt lat="50.76863" lon="5.51428">
        <ele>85</ele>
        <time>2019-01-20T05:15:08Z</time>
      </trkpt>
      <trkpt lat="50.76852" lon="5.51389">
        <ele>85</ele>
        <time>2019-01-20T05:16:08Z</time>
      </trkpt>
      <trkpt lat="50.76842" lon="5.51358">
        <ele>85</ele>
        <time>2019-01-20T05:17:08Z</time>
      </trkpt>
      <trkpt lat="50.76831" lon="5.51357">
        <ele>84</ele>
        <time>2019-01-20T05:18:08Z</time>
      </trkpt>
      <trkpt lat="50.76782" lon="5.51307">
        <ele>86</ele>
        <time>2019-01-20T05:19:08Z</time>
      </trkpt>
      <trkpt lat="50.76694" lon="5.51216">
        <ele>87</ele>
        <time>2019-01-20T05:20:08Z</time>
      </trkpt>
      <trkpt lat="50.76644" lon="5.51166">
        <ele>86</ele>
        <time>2019-01-20T05:21:08Z</time>
      </trkpt>
      <trkpt lat="50.76588" lon="5.51108">
        <ele>86</ele>
        <time>2019-01-20T05:22:08Z</time>
      </trkpt>
      <trkpt lat="50.76571" lon="5.5109">
        <ele>86</ele>
        <time>2019-01-20T05:23:08Z</time>
      </trkpt>
      <trkpt lat="50.76549" lon="5.51072">
        <ele>87</ele>
        <time>2019-01-20T05:24:08Z</time>
      </trkpt>
      <trkpt lat="50.76431" lon="5.5102">
        <ele>88</ele>
        <time>2019-01-20T05:25:08Z</time>
      </trkpt>
      <trkpt lat="50.76302" lon="5.50965">
        <ele>89</ele>
        <time>2019-01-20T05:26:08Z</time>
      </trkpt>
      <trkpt lat="50.76262" lon="5.50951">
        <ele>90</ele>
        <time>2019-01-20T05:27:08Z</time>
      </trkpt>
      <trkpt lat="50.76237" lon="5.50943">
        <ele>90</ele>
        <time>2019-01-20T05:28:08Z</time>
      </trkpt>
      <trkpt lat="50.76217" lon="5.5093">
        <ele>90</ele>
        <time>2019-01-20T05:29:08Z</time>
      </trkpt>
      <trkpt lat="50.76176" lon="5.50908">
        <ele>89</ele>
        <time>2019-01-20T05:30:08Z</time>
      </trkpt>
      <trkpt lat="50.76159" lon="5.5089">
        <ele>89</ele>
        <time>2019-01-20T05:31:08Z</time>
      </trkpt>
      <trkpt lat="50.76093" lon="5.50783">
        <ele>88</ele>
        <time>2019-01-20T05:32:08Z</time>
      </trkpt>
      <trkpt lat="50.76047" lon="5.50712">
        <ele>88</ele>
        <time>2019-01-20T05:33:08Z</time>
      </trkpt>
      <trkpt lat="50.76063" lon="5.50692">
        <ele>89</ele>
        <time>2019-01-20T05:34:08Z</time>
      </trkpt>
      <trkpt lat="50.76009" lon="5.50607">
        <ele>89</ele>
        <time>2019-01-20T05:35:08Z</time>
      </trkpt>
      <trkpt lat="50.75996" lon="5.50572">
        <ele>89</ele>
        <time>2019-01-20T05:36:08Z</time>
      </trkpt>
      <trkpt lat="50.75968" lon="5.50477">
        <ele>89</ele>
        <time>2019-01-20T05:37:08Z</time>
      </trkpt>
      <trkpt lat="50.75944" lon="5.50418">
        <ele>89</ele>
        <time>2019-01-20T05:38:08Z</time>
      </trkpt>
      <trkpt lat="50.7592" lon="5.50372">
        <ele>88</ele>
        <time>2019-01-20T05:39:08Z</time>
      </trkpt>
      <trkpt lat="50.75897" lon="5.50334">
        <ele>88</ele>
        <time>2019-01-20T05:40:08Z</time>
      </trkpt>
      <trkpt lat="50.7585" lon="5.50269">
        <ele>91</ele>
        <time>2019-01-20T05:41:08Z</time>
      </trkpt>
      <trkpt lat="50.75832" lon="5.50233">
        <ele>91</ele>
        <time>2019-01-20T05:42:08Z</time>
      </trkpt>
      <trkpt lat="50.75804" lon="5.50157">
        <ele>91</ele>
        <time>2019-01-20T05:43:08Z</time>
      </trkpt>
      <trkpt lat="50.75778" lon="5.50092">
        <ele>91</ele>
        <time>2019-01-20T05:44:08Z</time>
      </trkpt>
      <trkpt lat="50.75762" lon="5.50058">
        <ele>91</ele>
        <time>2019-01-20T05:45:08Z</time>
      </trkpt>
      <trkpt lat="50.75742" lon="5.5002">
        <ele>91</ele>
        <time>2019-01-20T05:46:08Z</time>
      </trkpt>
      <trkpt lat="50.75699" lon="5.49951">
        <ele>92</ele>
        <time>2019-01-20T05:47:08Z</time>
      </trkpt>
      <trkpt lat="50.75669" lon="5.499">
        <ele>92</ele>
        <time>2019-01-20T05:48:08Z</time>
      </trkpt>
      <trkpt lat="50.75634" lon="5.49844">
        <ele>91</ele>
        <time>2019-01-20T05:49:08Z</time>
      </trkpt>
      <trkpt lat="50.75609" lon="5.49806">
        <ele>91</ele>
        <time>2019-01-20T05:50:08Z</time>
      </trkpt>
      <trkpt lat="50.75579" lon="5.49747">
        <ele>90</ele>
        <time>2019-01-20T05:51:08Z</time>
      </trkpt>
      <trkpt lat="50.75495" lon="5.49514">
        <ele>94</ele>
        <time>2019-01-20T05:52:08Z</time>
      </trkpt>
      <trkpt lat="50.75479" lon="5.49472">
        <ele>95</ele>
        <time>2019-01-20T05:53:08Z</time>
      </trkpt>
      <trkpt lat="50.75465" lon="5.49446">
        <ele>95</ele>
        <time>2019-01-20T05:54:08Z</time>
      </trkpt>
      <trkpt lat="50.75444" lon="5.49409">
        <ele>96</ele>
        <time>2019-01-20T05:55:08Z</time>
      </trkpt>
      <trkpt lat="50.75402" lon="5.49339">
        <ele>94</ele>
        <time>2019-01-20T05:56:08Z</time>
      </trkpt>
      <trkpt lat="50.75362" lon="5.49269">
        <ele>94</ele>
        <time>2019-01-20T05:57:08Z</time>
      </trkpt>
      <trkpt lat="50.75321" lon="5.492">
        <ele>95</ele>
        <time>2019-01-20T05:58:08Z</time>
      </trkpt>
      <trkpt lat="50.75283" lon="5.49133">
        <ele>96</ele>
        <time>2019-01-20T05:59:08Z</time>
      </trkpt>
      <trkpt lat="50.75263" lon="5.49093">
        <ele>96</ele>
        <time>2019-01-20T06:00:08Z</time>
      </trkpt>
      <trkpt lat="50.75248" lon="5.49059">
        <ele>97</ele>
        <time>2019-01-20T06:01:08Z</time>
      </trkpt>
      <trkpt lat="50.75225" lon="5.49001">
        <ele>97</ele>
        <time>2019-01-20T06:02:08Z</time>
      </trkpt>
      <trkpt lat="50.75176" lon="5.4887">
        <ele>98</ele>
        <time>2019-01-20T06:03:08Z</time>
      </trkpt>
      <trkpt lat="50.75171" lon="5.48856">
        <ele>98</ele>
        <time>2019-01-20T06:04:08Z</time>
      </trkpt>
      <trkpt lat="50.75163" lon="5.4885">
        <ele>98</ele>
        <time>2019-01-20T06:05:08Z</time>
      </trkpt>
      <trkpt lat="50.7515" lon="5.48811">
        <ele>98</ele>
        <time>2019-01-20T06:06:08Z</time>
      </trkpt>
      <trkpt lat="50.75126" lon="5.48716">
        <ele>99</ele>
        <time>2019-01-20T06:07:08Z</time>
      </trkpt>
      <trkpt lat="50.75089" lon="5.48573">
        <ele>103</ele>
        <time>2019-01-20T06:08:08Z</time>
      </trkpt>
      <trkpt lat="50.75081" lon="5.48535">
        <ele>104</ele>
        <time>2019-01-20T06:09:08Z</time>
      </trkpt>
      <trkpt lat="50.75075" lon="5.48506">
        <ele>104</ele>
        <time>2019-01-20T06:10:08Z</time>
      </trkpt>
      <trkpt lat="50.75071" lon="5.48453">
        <ele>104</ele>
        <time>2019-01-20T06:11:08Z</time>
      </trkpt>
      <trkpt lat="50.75063" lon="5.484">
        <ele>105</ele>
        <time>2019-01-20T06:12:08Z</time>
      </trkpt>
      <trkpt lat="50.75051" lon="5.48343">
        <ele>105</ele>
        <time>2019-01-20T06:13:08Z</time>
      </trkpt>
      <trkpt lat="50.75021" lon="5.48209">
        <ele>106</ele>
        <time>2019-01-20T06:14:08Z</time>
      </trkpt>
      <trkpt lat="50.75008" lon="5.48164">
        <ele>106</ele>
        <time>2019-01-20T06:15:08Z</time>
      </trkpt>
      <trkpt lat="50.74994" lon="5.48127">
        <ele>107</ele>
        <time>2019-01-20T06:16:08Z</time>
      </trkpt>
      <trkpt lat="50.74986" lon="5.48112">
        <ele>108</ele>
        <time>2019-01-20T06:17:08Z</time>
      </trkpt>
      <trkpt lat="50.74972" lon="5.48093">
        <ele>108</ele>
        <time>2019-01-20T06:18:08Z</time>
      </trkpt>
      <trkpt lat="50.7494" lon="5.48053">
        <ele>110</ele>
        <time>2019-01-20T06:19:08Z</time>
      </trkpt>
      <trkpt lat="50.74878" lon="5.47973">
        <ele>111</ele>
        <time>2019-01-20T06:20:08Z</time>
      </trkpt>
      <trkpt lat="50.74808" lon="5.47886">
        <ele>111</ele>
        <time>2019-01-20T06:21:08Z</time>
      </trkpt>
      <trkpt lat="50.74727" lon="5.4779">
        <ele>114</ele>
        <time>2019-01-20T06:22:08Z</time>
      </trkpt>
      <trkpt lat="50.74681" lon="5.47739">
        <ele>115</ele>
        <time>2019-01-20T06:23:08Z</time>
      </trkpt>
      <trkpt lat="50.74696" lon="5.47661">
        <ele>114</ele>
        <time>2019-01-20T06:24:08Z</time>
      </trkpt>
      <trkpt lat="50.74718" lon="5.47577">
        <ele>111</ele>
        <time>2019-01-20T06:25:08Z</time>
      </trkpt>
      <trkpt lat="50.74728" lon="5.47534">
        <ele>110</ele>
        <time>2019-01-20T06:26:08Z</time>
      </trkpt>
      <trkpt lat="50.74735" lon="5.47499">
        <ele>110</ele>
        <time>2019-01-20T06:27:08Z</time>
      </trkpt>
      <trkpt lat="50.74767" lon="5.47228">
        <ele>107</ele>
        <time>2019-01-20T06:28:08Z</time>
      </trkpt>
      <trkpt lat="50.74773" lon="5.47185">
        <ele>106</ele>
        <time>2019-01-20T06:29:08Z</time>
      </trkpt>
      <trkpt lat="50.74779" lon="5.47159">
        <ele>106</ele>
        <time>2019-01-20T06:30:08Z</time>
      </trkpt>
      <trkpt lat="50.74793" lon="5.47098">
        <ele>106</ele>
        <time>2019-01-20T06:31:08Z</time>
      </trkpt>
      <trkpt lat="50.74805" lon="5.47055">
        <ele>106</ele>
        <time>2019-01-20T06:32:08Z</time>
      </trkpt>
      <trkpt lat="50.74818" lon="5.4701">
        <ele>107</ele>
        <time>2019-01-20T06:33:08Z</time>
      </trkpt>
      <trkpt lat="50.74836" lon="5.46943">
        <ele>107</ele>
        <time>2019-01-20T06:34:08Z</time>
      </trkpt>
      <trkpt lat="50.74848" lon="5.46857">
        <ele>105</ele>
        <time>2019-01-20T06:35:08Z</time>
      </trkpt>
      <trkpt lat="50.7485" lon="5.46813">
        <ele>104</ele>
        <time>2019-01-20T06:36:08Z</time>
      </trkpt>
      <trkpt lat="50.74849" lon="5.46765">
        <ele>103</ele>
        <time>2019-01-20T06:37:08Z</time>
      </trkpt>
      <trkpt lat="50.74834" lon="5.46533">
        <ele>103</ele>
        <time>2019-01-20T06:38:08Z</time>
      </trkpt>
      <trkpt lat="50.74822" lon="5.46329">
        <ele>109</ele>
        <time>2019-01-20T06:39:08Z</time>
      </trkpt>
      <trkpt lat="50.74792" lon="5.46068">
        <ele>108</ele>
        <time>2019-01-20T06:40:08Z</time>
      </trkpt>
      <trkpt lat="50.74739" lon="5.45629">
        <ele>107</ele>
        <time>2019-01-20T06:41:08Z</time>
      </trkpt>
      <trkpt lat="50.74719" lon="5.45469">
        <ele>106</ele>
        <time>2019-01-20T06:42:08Z</time>
      </trkpt>
      <trkpt lat="50.74697" lon="5.45293">
        <ele>106</ele>
        <time>2019-01-20T06:43:08Z</time>
      </trkpt>
      <trkpt lat="50.7469" lon="5.45261">
        <ele>106</ele>
        <time>2019-01-20T06:44:08Z</time>
      </trkpt>
      <trkpt lat="50.74678" lon="5.45213">
        <ele>107</ele>
        <time>2019-01-20T06:45:08Z</time>
      </trkpt>
      <trkpt lat="50.74662" lon="5.45142">
        <ele>108</ele>
        <time>2019-01-20T06:46:08Z</time>
      </trkpt>
      <trkpt lat="50.74658" lon="5.45117">
        <ele>109</ele>
        <time>2019-01-20T06:47:08Z</time>
      </trkpt>
      <trkpt lat="50.74656" lon="5.45093">
        <ele>109</ele>
        <time>2019-01-20T06:48:08Z</time>
      </trkpt>
      <trkpt lat="50.7465" lon="5.44854">
        <ele>108</ele>
        <time>2019-01-20T06:49:08Z</time>
      </trkpt>
      <trkpt lat="50.74665" lon="5.44825">
        <ele>108</ele>
        <time>2019-01-20T06:50:08Z</time>
      </trkpt>
      <trkpt lat="50.74629" lon="5.44762">
        <ele>109</ele>
        <time>2019-01-20T06:51:08Z</time>
      </trkpt>
      <trkpt lat="50.74577" lon="5.44687">
        <ele>110</ele>
        <time>2019-01-20T06:52:08Z</time>
      </trkpt>
      <trkpt lat="50.74535" lon="5.44626">
        <ele>109</ele>
        <time>2019-01-20T06:53:08Z</time>
      </trkpt>
      <trkpt lat="50.74526" lon="5.44609">
        <ele>109</ele>
        <time>2019-01-20T06:54:08Z</time>
      </trkpt>
      <trkpt lat="50.74519" lon="5.44591">
        <ele>109</ele>
        <time>2019-01-20T06:55:08Z</time>
      </trkpt>
      <trkpt lat="50.74515" lon="5.44566">
        <ele>108</ele>
        <time>2019-01-20T06:56:08Z</time>
      </trkpt>
      <trkpt lat="50.7452" lon="5.44536">
        <ele>106</ele>
        <time>2019-01-20T06:57:08Z</time>
      </trkpt>
      <trkpt lat="50.74535" lon="5.44502">
        <ele>104</ele>
        <time>2019-01-20T06:58:08Z</time>
      </trkpt>
      <trkpt lat="50.74543" lon="5.44483">
        <ele>103</ele>
        <time>2019-01-20T06:59:08Z</time>
      </trkpt>
      <trkpt lat="50.74565" lon="5.44421">
        <ele>103</ele>
        <time>2019-01-20T07:00:08Z</time>
      </trkpt>
      <trkpt lat="50.74574" lon="5.44402">
        <ele>103</ele>
        <time>2019-01-20T07:01:08Z</time>
      </trkpt>
      <trkpt lat="50.74649" lon="5.44273">
        <ele>105</ele>
        <time>2019-01-20T07:02:08Z</time>
      </trkpt>
      <trkpt lat="50.74709" lon="5.44175">
        <ele>110</ele>
        <time>2019-01-20T07:03:08Z</time>
      </trkpt>
      <trkpt lat="50.74709" lon="5.44142">
        <ele>111</ele>
        <time>2019-01-20T07:04:08Z</time>
      </trkpt>
      <trkpt lat="50.74728" lon="5.44105">
        <ele>111</ele>
        <time>2019-01-20T07:05:08Z</time>
      </trkpt>
      <trkpt lat="50.74773" lon="5.43969">
        <ele>111</ele>
        <time>2019-01-20T07:06:08Z</time>
      </trkpt>
      <trkpt lat="50.74801" lon="5.43854">
        <ele>109</ele>
        <time>2019-01-20T07:07:08Z</time>
      </trkpt>
      <trkpt lat="50.74847" lon="5.43677">
        <ele>104</ele>
        <time>2019-01-20T07:08:08Z</time>
      </trkpt>
      <trkpt lat="50.74923" lon="5.43385">
        <ele>95</ele>
        <time>2019-01-20T07:09:08Z</time>
      </trkpt>
      <trkpt lat="50.74944" lon="5.43298">
        <ele>93</ele>
        <time>2019-01-20T07:10:08Z</time>
      </trkpt>
      <trkpt lat="50.74833" lon="5.4324">
        <ele>95</ele>
        <time>2019-01-20T07:11:08Z</time>
      </trkpt>
      <trkpt lat="50.74738" lon="5.43191">
        <ele>96</ele>
        <time>2019-01-20T07:12:08Z</time>
      </trkpt>
      <trkpt lat="50.74644" lon="5.43138">
        <ele>95</ele>
        <time>2019-01-20T07:13:08Z</time>
      </trkpt>
      <trkpt lat="50.74591" lon="5.43103">
        <ele>95</ele>
        <time>2019-01-20T07:14:08Z</time>
      </trkpt>
      <trkpt lat="50.74588" lon="5.43089">
        <ele>94</ele>
        <time>2019-01-20T07:15:08Z</time>
      </trkpt>
      <trkpt lat="50.74565" lon="5.42998">
        <ele>95</ele>
        <time>2019-01-20T07:16:08Z</time>
      </trkpt>
      <trkpt lat="50.74557" lon="5.42964">
        <ele>95</ele>
        <time>2019-01-20T07:17:08Z</time>
      </trkpt>
      <trkpt lat="50.74532" lon="5.42877">
        <ele>95</ele>
        <time>2019-01-20T07:18:08Z</time>
      </trkpt>
      <trkpt lat="50.74497" lon="5.42745">
        <ele>92</ele>
        <time>2019-01-20T07:19:08Z</time>
      </trkpt>
      <trkpt lat="50.74462" lon="5.4261">
        <ele>92</ele>
        <time>2019-01-20T07:20:08Z</time>
      </trkpt>
      <trkpt lat="50.74438" lon="5.42544">
        <ele>93</ele>
        <time>2019-01-20T07:21:08Z</time>
      </trkpt>
      <trkpt lat="50.74427" lon="5.4252">
        <ele>93</ele>
        <time>2019-01-20T07:22:08Z</time>
      </trkpt>
      <trkpt lat="50.74412" lon="5.42496">
        <ele>93</ele>
        <time>2019-01-20T07:23:08Z</time>
      </trkpt>
      <trkpt lat="50.74382" lon="5.42458">
        <ele>94</ele>
        <time>2019-01-20T07:24:08Z</time>
      </trkpt>
      <trkpt lat="50.74408" lon="5.42443">
        <ele>93</ele>
        <time>2019-01-20T07:25:08Z</time>
      </trkpt>
      <trkpt lat="50.74442" lon="5.42422">
        <ele>94</ele>
        <time>2019-01-20T07:26:08Z</time>
      </trkpt>
      <trkpt lat="50.74474" lon="5.42405">
        <ele>94</ele>
        <time>2019-01-20T07:27:08Z</time>
      </trkpt>
      <trkpt lat="50.74479" lon="5.42409">
        <ele>94</ele>
        <time>2019-01-20T07:28:08Z</time>
      </trkpt>
      <trkpt lat="50.74486" lon="5.42419">
        <ele>95</ele>
        <time>2019-01-20T07:29:08Z</time>
      </trkpt>
      <trkpt lat="50.74491" lon="5.42404">
        <ele>95</ele>
        <time>2019-01-20T07:30:08Z</time>
      </trkpt>
      <trkpt lat="50.74487" lon="5.42388">
        <ele>95</ele>
        <time>2019-01-20T07:31:08Z</time>
      </trkpt>
      <trkpt lat="50.74476" lon="5.42362">
        <ele>94</ele>
        <time>2019-01-20T07:32:08Z</time>
      </trkpt>
      <trkpt lat="50.74475" lon="5.42345">
        <ele>94</ele>
        <time>2019-01-20T07:33:08Z</time>
      </trkpt>
      <trkpt lat="50.74486" lon="5.4232">
        <ele>95</ele>
        <time>2019-01-20T07:34:08Z</time>
      </trkpt>
      <trkpt lat="50.74513" lon="5.42259">
        <ele>95</ele>
        <time>2019-01-20T07:35:08Z</time>
      </trkpt>
      <trkpt lat="50.74535" lon="5.42212">
        <ele>96</ele>
        <time>2019-01-20T07:36:08Z</time>
      </trkpt>
      <trkpt lat="50.74547" lon="5.42196">
        <ele>97</ele>
        <time>2019-01-20T07:37:08Z</time>
      </trkpt>
      <trkpt lat="50.74552" lon="5.42184">
        <ele>97</ele>
        <time>2019-01-20T07:38:08Z</time>
      </trkpt>
      <trkpt lat="50.74552" lon="5.42171">
        <ele>97</ele>
        <time>2019-01-20T07:39:08Z</time>
      </trkpt>
      <trkpt lat="50.74551" lon="5.42148">
        <ele>97</ele>
        <time>2019-01-20T07:40:08Z</time>
      </trkpt>
      <trkpt lat="50.74549" lon="5.42127">
        <ele>97</ele>
        <time>2019-01-20T07:41:08Z</time>
      </trkpt>
      <trkpt lat="50.74549" lon="5.42104">
        <ele>97</ele>
        <time>2019-01-20T07:42:08Z</time>
      </trkpt>
      <trkpt lat="50.7455" lon="5.42046">
        <ele>98</ele>
        <time>2019-01-20T07:43:08Z</time>
      </trkpt>
      <trkpt lat="50.74556" lon="5.42025">
        <ele>99</ele>
        <time>2019-01-20T07:44:08Z</time>
      </trkpt>
      <trkpt lat="50.74515" lon="5.41995">
        <ele>97</ele>
        <time>2019-01-20T07:45:08Z</time>
      </trkpt>
      <trkpt lat="50.74467" lon="5.4196">
        <ele>97</ele>
        <time>2019-01-20T07:46:08Z</time>
      </trkpt>
      <trkpt lat="50.7443" lon="5.4193">
        <ele>96</ele>
        <time>2019-01-20T07:47:08Z</time>
      </trkpt>
      <trkpt lat="50.74382" lon="5.41876">
        <ele>97</ele>
        <time>2019-01-20T07:48:08Z</time>
      </trkpt>
      <trkpt lat="50.74353" lon="5.41841">
        <ele>97</ele>
        <time>2019-01-20T07:49:08Z</time>
      </trkpt>
      <trkpt lat="50.74329" lon="5.41816">
        <ele>97</ele>
        <time>2019-01-20T07:50:08Z</time>
      </trkpt>
      <trkpt lat="50.74313" lon="5.4181">
        <ele>98</ele>
        <time>2019-01-20T07:51:08Z</time>
      </trkpt>
      <trkpt lat="50.74252" lon="5.41804">
        <ele>98</ele>
        <time>2019-01-20T07:52:08Z</time>
      </trkpt>
      <trkpt lat="50.74238" lon="5.41807">
        <ele>97</ele>
        <time>2019-01-20T07:53:08Z</time>
      </trkpt>
      <trkpt lat="50.74218" lon="5.41819">
        <ele>96</ele>
        <time>2019-01-20T07:54:08Z</time>
      </trkpt>
      <trkpt lat="50.74197" lon="5.4183">
        <ele>95</ele>
        <time>2019-01-20T07:55:08Z</time>
      </trkpt>
      <trkpt lat="50.74187" lon="5.41832">
        <ele>95</ele>
        <time>2019-01-20T07:56:08Z</time>
      </trkpt>
      <trkpt lat="50.74179" lon="5.4183">
        <ele>94</ele>
        <time>2019-01-20T07:57:08Z</time>
      </trkpt>
      <trkpt lat="50.74166" lon="5.41826">
        <ele>94</ele>
        <time>2019-01-20T07:58:08Z</time>
      </trkpt>
      <trkpt lat="50.74152" lon="5.41811">
        <ele>94</ele>
        <time>2019-01-20T07:59:08Z</time>
      </trkpt>
      <trkpt lat="50.74114" lon="5.41756">
        <ele>95</ele>
        <time>2019-01-20T08:00:08Z</time>
      </trkpt>
      <trkpt lat="50.74092" lon="5.41723">
        <ele>96</ele>
        <time>2019-01-20T08:01:08Z</time>
      </trkpt>
      <trkpt lat="50.74073" lon="5.41684">
        <ele>96</ele>
        <time>2019-01-20T08:02:08Z</time>
      </trkpt>
      <trkpt lat="50.74057" lon="5.41646">
        <ele>96</ele>
        <time>2019-01-20T08:03:08Z</time>
      </trkpt>
      <trkpt lat="50.74043" lon="5.41609">
        <ele>98</ele>
        <time>2019-01-20T08:04:08Z</time>
      </trkpt>
      <trkpt lat="50.74021" lon="5.41554">
        <ele>100</ele>
        <time>2019-01-20T08:05:08Z</time>
      </trkpt>
      <trkpt lat="50.74011" lon="5.41531">
        <ele>100</ele>
        <time>2019-01-20T08:06:08Z</time>
      </trkpt>
      <trkpt lat="50.73998" lon="5.41506">
        <ele>101</ele>
        <time>2019-01-20T08:07:08Z</time>
      </trkpt>
      <trkpt lat="50.73982" lon="5.41477">
        <ele>100</ele>
        <time>2019-01-20T08:08:08Z</time>
      </trkpt>
      <trkpt lat="50.74" lon="5.41459">
        <ele>101</ele>
        <time>2019-01-20T08:09:08Z</time>
      </trkpt>
      <trkpt lat="50.74023" lon="5.41436">
        <ele>103</ele>
        <time>2019-01-20T08:10:08Z</time>
      </trkpt>
      <trkpt lat="50.7405" lon="5.41406">
        <ele>104</ele>
        <time>2019-01-20T08:11:08Z</time>
      </trkpt>
      <trkpt lat="50.74079" lon="5.41369">
        <ele>105</ele>
        <time>2019-01-20T08:12:08Z</time>
      </trkpt>
      <trkpt lat="50.74099" lon="5.41343">
        <ele>107</ele>
        <time>2019-01-20T08:13:08Z</time>
      </trkpt>
      <trkpt lat="50.74158" lon="5.41247">
        <ele>110</ele>
        <time>2019-01-20T08:14:08Z</time>
      </trkpt>
      <trkpt lat="50.74195" lon="5.41195">
        <ele>112</ele>
        <time>2019-01-20T08:15:08Z</time>
      </trkpt>
      <trkpt lat="50.74238" lon="5.41134">
        <ele>113</ele>
        <time>2019-01-20T08:16:08Z</time>
      </trkpt>
      <trkpt lat="50.7443" lon="5.40907">
        <ele>117</ele>
        <time>2019-01-20T08:17:08Z</time>
      </trkpt>
      <trkpt lat="50.74453" lon="5.4087">
        <ele>116</ele>
        <time>2019-01-20T08:18:08Z</time>
      </trkpt>
      <trkpt lat="50.74472" lon="5.40836">
        <ele>114</ele>
        <time>2019-01-20T08:19:08Z</time>
      </trkpt>
      <trkpt lat="50.74494" lon="5.40789">
        <ele>113</ele>
        <time>2019-01-20T08:20:08Z</time>
      </trkpt>
      <trkpt lat="50.74519" lon="5.40697">
        <ele>112</ele>
        <time>2019-01-20T08:21:08Z</time>
      </trkpt>
      <trkpt lat="50.74526" lon="5.40673">
        <ele>112</ele>
        <time>2019-01-20T08:22:08Z</time>
      </trkpt>
      <trkpt lat="50.74532" lon="5.40656">
        <ele>112</ele>
        <time>2019-01-20T08:23:08Z</time>
      </trkpt>
      <trkpt lat="50.74562" lon="5.40641">
        <ele>111</ele>
        <time>2019-01-20T08:24:08Z</time>
      </trkpt>
      <trkpt lat="50.74597" lon="5.40629">
        <ele>112</ele>
        <time>2019-01-20T08:25:08Z</time>
      </trkpt>
      <trkpt lat="50.74619" lon="5.40616">
        <ele>112</ele>
        <time>2019-01-20T08:26:08Z</time>
      </trkpt>
      <trkpt lat="50.74641" lon="5.40598">
        <ele>113</ele>
        <time>2019-01-20T08:27:08Z</time>
      </trkpt>
      <trkpt lat="50.74684" lon="5.40558">
        <ele>114</ele>
        <time>2019-01-20T08:28:08Z</time>
      </trkpt>
      <trkpt lat="50.74712" lon="5.4052">
        <ele>113</ele>
        <time>2019-01-20T08:29:08Z</time>
      </trkpt>
      <trkpt lat="50.74803" lon="5.40394">
        <ele>109</ele>
        <time>2019-01-20T08:30:08Z</time>
      </trkpt>
      <trkpt lat="50.74825" lon="5.40374">
        <ele>107</ele>
        <time>2019-01-20T08:31:08Z</time>
      </trkpt>
      <trkpt lat="50.74883" lon="5.40335">
        <ele>105</ele>
        <time>2019-01-20T08:32:08Z</time>
      </trkpt>
      <trkpt lat="50.74944" lon="5.40279">
        <ele>105</ele>
        <time>2019-01-20T08:33:08Z</time>
      </trkpt>
      <trkpt lat="50.74981" lon="5.40238">
        <ele>103</ele>
        <time>2019-01-20T08:34:08Z</time>
      </trkpt>
      <trkpt lat="50.75028" lon="5.40169">
        <ele>103</ele>
        <time>2019-01-20T08:35:08Z</time>
      </trkpt>
      <trkpt lat="50.75044" lon="5.40142">
        <ele>103</ele>
        <time>2019-01-20T08:36:08Z</time>
      </trkpt>
      <trkpt lat="50.75054" lon="5.4012">
        <ele>103</ele>
        <time>2019-01-20T08:37:08Z</time>
      </trkpt>
      <trkpt lat="50.75102" lon="5.40004">
        <ele>106</ele>
        <time>2019-01-20T08:38:08Z</time>
      </trkpt>
      <trkpt lat="50.75138" lon="5.39922">
        <ele>107</ele>
        <time>2019-01-20T08:39:08Z</time>
      </trkpt>
      <trkpt lat="50.75165" lon="5.3986">
        <ele>109</ele>
        <time>2019-01-20T08:40:08Z</time>
      </trkpt>
      <trkpt lat="50.75181" lon="5.39827">
        <ele>109</ele>
        <time>2019-01-20T08:41:08Z</time>
      </trkpt>
      <trkpt lat="50.75217" lon="5.39762">
        <ele>108</ele>
        <time>2019-01-20T08:42:08Z</time>
      </trkpt>
      <trkpt lat="50.75243" lon="5.39725">
        <ele>106</ele>
        <time>2019-01-20T08:43:08Z</time>
      </trkpt>
      <trkpt lat="50.7526" lon="5.39704">
        <ele>105</ele>
        <time>2019-01-20T08:44:08Z</time>
      </trkpt>
      <trkpt lat="50.75312" lon="5.39648">
        <ele>101</ele>
        <time>2019-01-20T08:45:08Z</time>
      </trkpt>
      <trkpt lat="50.75415" lon="5.39547">
        <ele>95</ele>
        <time>2019-01-20T08:46:08Z</time>
      </trkpt>
      <trkpt lat="50.75512" lon="5.39433">
        <ele>93</ele>
        <time>2019-01-20T08:47:08Z</time>
      </trkpt>
      <trkpt lat="50.75629" lon="5.39289">
        <ele>90</ele>
        <time>2019-01-20T08:48:08Z</time>
      </trkpt>
      <trkpt lat="50.75697" lon="5.39207">
        <ele>89</ele>
        <time>2019-01-20T08:49:08Z</time>
      </trkpt>
      <trkpt lat="50.75729" lon="5.39167">
        <ele>89</ele>
        <time>2019-01-20T08:50:08Z</time>
      </trkpt>
      <trkpt lat="50.75752" lon="5.39129">
        <ele>89</ele>
        <time>2019-01-20T08:51:08Z</time>
      </trkpt>
      <trkpt lat="50.75782" lon="5.39079">
        <ele>90</ele>
        <time>2019-01-20T08:52:08Z</time>
      </trkpt>
      <trkpt lat="50.758" lon="5.39051">
        <ele>89</ele>
        <time>2019-01-20T08:53:08Z</time>
      </trkpt>
      <trkpt lat="50.75802" lon="5.39039">
        <ele>89</ele>
        <time>2019-01-20T08:54:08Z</time>
      </trkpt>
      <trkpt lat="50.75808" lon="5.38873">
        <ele>88</ele>
        <time>2019-01-20T08:55:08Z</time>
      </trkpt>
      <trkpt lat="50.75809" lon="5.38797">
        <ele>89</ele>
        <time>2019-01-20T08:56:08Z</time>
      </trkpt>
      <trkpt lat="50.75807" lon="5.38761">
        <ele>89</ele>
        <time>2019-01-20T08:57:08Z</time>
      </trkpt>
      <trkpt lat="50.75803" lon="5.38729">
        <ele>89</ele>
        <time>2019-01-20T08:58:08Z</time>
      </trkpt>
      <trkpt lat="50.75787" lon="5.38575">
        <ele>89</ele>
        <time>2019-01-20T08:59:08Z</time>
      </trkpt>
      <trkpt lat="50.75766" lon="5.38401">
        <ele>89</ele>
        <time>2019-01-20T09:00:08Z</time>
      </trkpt>
      <trkpt lat="50.75766" lon="5.38372">
        <ele>89</ele>
        <time>2019-01-20T09:01:08Z</time>
      </trkpt>
      <trkpt lat="50.75767" lon="5.38352">
        <ele>88</ele>
        <time>2019-01-20T09:02:08Z</time>
      </trkpt>
      <trkpt lat="50.75783" lon="5.38287">
        <ele>88</ele>
        <time>2019-01-20T09:03:08Z</time>
      </trkpt>
      <trkpt lat="50.75789" lon="5.38258">
        <ele>88</ele>
        <time>2019-01-20T09:04:08Z</time>
      </trkpt>
      <trkpt lat="50.75792" lon="5.3824">
        <ele>88</ele>
        <time>2019-01-20T09:05:08Z</time>
      </trkpt>
      <trkpt lat="50.75794" lon="5.38217">
        <ele>87</ele>
        <time>2019-01-20T09:06:08Z</time>
      </trkpt>
      <trkpt lat="50.75793" lon="5.38196">
        <ele>86</ele>
        <time>2019-01-20T09:07:08Z</time>
      </trkpt>
      <trkpt lat="50.75791" lon="5.38169">
        <ele>86</ele>
        <time>2019-01-20T09:08:08Z</time>
      </trkpt>
      <trkpt lat="50.75786" lon="5.38146">
        <ele>85</ele>
        <time>2019-01-20T09:09:08Z</time>
      </trkpt>
      <trkpt lat="50.75755" lon="5.3804">
        <ele>84</ele>
        <time>2019-01-20T09:10:08Z</time>
      </trkpt>
      <trkpt lat="50.75741" lon="5.37985">
        <ele>84</ele>
        <time>2019-01-20T09:11:08Z</time>
      </trkpt>
      <trkpt lat="50.75735" lon="5.37959">
        <ele>84</ele>
        <time>2019-01-20T09:12:08Z</time>
      </trkpt>
      <trkpt lat="50.75731" lon="5.37939">
        <ele>84</ele>
        <time>2019-01-20T09:13:08Z</time>
      </trkpt>
      <trkpt lat="50.75727" lon="5.37912">
        <ele>84</ele>
        <time>2019-01-20T09:14:08Z</time>
      </trkpt>
      <trkpt lat="50.75724" lon="5.37886">
        <ele>85</ele>
        <time>2019-01-20T09:15:08Z</time>
      </trkpt>
      <trkpt lat="50.75721" lon="5.3783">
        <ele>87</ele>
        <time>2019-01-20T09:16:08Z</time>
      </trkpt>
      <trkpt lat="50.75723" lon="5.37784">
        <ele>88</ele>
        <time>2019-01-20T09:17:08Z</time>
      </trkpt>
      <trkpt lat="50.75724" lon="5.37728">
        <ele>88</ele>
        <time>2019-01-20T09:18:08Z</time>
      </trkpt>
      <trkpt lat="50.75725" lon="5.37703">
        <ele>88</ele>
        <time>2019-01-20T09:19:08Z</time>
      </trkpt>
      <trkpt lat="50.75724" lon="5.37687">
        <ele>88</ele>
        <time>2019-01-20T09:20:08Z</time>
      </trkpt>
      <trkpt lat="50.75721" lon="5.37661">
        <ele>87</ele>
        <time>2019-01-20T09:21:08Z</time>
      </trkpt>
      <trkpt lat="50.75718" lon="5.37647">
        <ele>87</ele>
        <time>2019-01-20T09:22:08Z</time>
      </trkpt>
      <trkpt lat="50.75711" lon="5.37628">
        <ele>88</ele>
        <time>2019-01-20T09:23:08Z</time>
      </trkpt>
      <trkpt lat="50.75706" lon="5.37614">
        <ele>88</ele>
        <time>2019-01-20T09:24:08Z</time>
      </trkpt>
      <trkpt lat="50.75693" lon="5.37586">
        <ele>88</ele>
        <time>2019-01-20T09:25:08Z</time>
      </trkpt>
      <trkpt lat="50.75685" lon="5.37565">
        <ele>89</ele>
        <time>2019-01-20T09:26:08Z</time>
      </trkpt>
      <trkpt lat="50.75677" lon="5.37544">
        <ele>89</ele>
        <time>2019-01-20T09:27:08Z</time>
      </trkpt>
      <trkpt lat="50.75457" lon="5.37768">
        <ele>88</ele>
        <time>2019-01-20T09:28:08Z</time>
      </trkpt>
      <trkpt lat="50.75433" lon="5.3779">
        <ele>89</ele>
        <time>2019-01-20T09:29:08Z</time>
      </trkpt>
      <trkpt lat="50.75418" lon="5.37801">
        <ele>89</ele>
        <time>2019-01-20T09:30:08Z</time>
      </trkpt>
      <trkpt lat="50.75401" lon="5.37811">
        <ele>90</ele>
        <time>2019-01-20T09:31:08Z</time>
      </trkpt>
      <trkpt lat="50.75376" lon="5.37823">
        <ele>90</ele>
        <time>2019-01-20T09:32:08Z</time>
      </trkpt>
      <trkpt lat="50.75346" lon="5.37832">
        <ele>91</ele>
        <time>2019-01-20T09:33:08Z</time>
      </trkpt>
      <trkpt lat="50.75322" lon="5.37833">
        <ele>91</ele>
        <time>2019-01-20T09:34:08Z</time>
      </trkpt>
      <trkpt lat="50.75272" lon="5.37828">
        <ele>93</ele>
        <time>2019-01-20T09:35:08Z</time>
      </trkpt>
      <trkpt lat="50.75211" lon="5.3782">
        <ele>95</ele>
        <time>2019-01-20T09:36:08Z</time>
      </trkpt>
      <trkpt lat="50.75081" lon="5.378">
        <ele>100</ele>
        <time>2019-01-20T09:37:08Z</time>
      </trkpt>
      <trkpt lat="50.74988" lon="5.37787">
        <ele>104</ele>
        <time>2019-01-20T09:38:08Z</time>
      </trkpt>
      <trkpt lat="50.7489" lon="5.37775">
        <ele>110</ele>
        <time>2019-01-20T09:39:08Z</time>
      </trkpt>
      <trkpt lat="50.7484" lon="5.37771">
        <ele>112</ele>
        <time>2019-01-20T09:40:08Z</time>
      </trkpt>
      <trkpt lat="50.74659" lon="5.37778">
        <ele>118</ele>
        <time>2019-01-20T09:41:08Z</time>
      </trkpt>
      <trkpt lat="50.74487" lon="5.37786">
        <ele>121</ele>
        <time>2019-01-20T09:42:08Z</time>
      </trkpt>
      <trkpt lat="50.74294" lon="5.3779">
        <ele>121</ele>
        <time>2019-01-20T09:43:08Z</time>
      </trkpt>
      <trkpt lat="50.74224" lon="5.37788">
        <ele>122</ele>
        <time>2019-01-20T09:44:08Z</time>
      </trkpt>
      <trkpt lat="50.74127" lon="5.37789">
        <ele>121</ele>
        <time>2019-01-20T09:45:08Z</time>
      </trkpt>
      <trkpt lat="50.74116" lon="5.3779">
        <ele>121</ele>
        <time>2019-01-20T09:46:08Z</time>
      </trkpt>
      <trkpt lat="50.74103" lon="5.37787">
        <ele>120</ele>
        <time>2019-01-20T09:47:08Z</time>
      </trkpt>
      <trkpt lat="50.74082" lon="5.37775">
        <ele>120</ele>
        <time>2019-01-20T09:48:08Z</time>
      </trkpt>
      <trkpt lat="50.74055" lon="5.37757">
        <ele>119</ele>
        <time>2019-01-20T09:49:08Z</time>
      </trkpt>
      <trkpt lat="50.74028" lon="5.37751">
        <ele>117</ele>
        <time>2019-01-20T09:50:08Z</time>
      </trkpt>
      <trkpt lat="50.73997" lon="5.37751">
        <ele>116</ele>
        <time>2019-01-20T09:51:08Z</time>
      </trkpt>
      <trkpt lat="50.73971" lon="5.37756">
        <ele>116</ele>
        <time>2019-01-20T09:52:08Z</time>
      </trkpt>
      <trkpt lat="50.73934" lon="5.37766">
        <ele>116</ele>
        <time>2019-01-20T09:53:08Z</time>
      </trkpt>
      <trkpt lat="50.73867" lon="5.3779">
        <ele>116</ele>
        <time>2019-01-20T09:54:08Z</time>
      </trkpt>
      <trkpt lat="50.73723" lon="5.37816">
        <ele>116</ele>
        <time>2019-01-20T09:55:08Z</time>
      </trkpt>
      <trkpt lat="50.73643" lon="5.37837">
        <ele>114</ele>
        <time>2019-01-20T09:56:08Z</time>
      </trkpt>
      <trkpt lat="50.73625" lon="5.37845">
        <ele>113</ele>
        <time>2019-01-20T09:57:08Z</time>
      </trkpt>
      <trkpt lat="50.73604" lon="5.37855">
        <ele>113</ele>
        <time>2019-01-20T09:58:08Z</time>
      </trkpt>
      <trkpt lat="50.73525" lon="5.37838">
        <ele>111</ele>
        <time>2019-01-20T09:59:08Z</time>
      </trkpt>
      <trkpt lat="50.73454" lon="5.37812">
        <ele>107</ele>
        <time>2019-01-20T10:00:08Z</time>
      </trkpt>
      <trkpt lat="50.73431" lon="5.3781">
        <ele>105</ele>
        <time>2019-01-20T10:01:08Z</time>
      </trkpt>
      <trkpt lat="50.73419" lon="5.3781">
        <ele>104</ele>
        <time>2019-01-20T10:02:08Z</time>
      </trkpt>
      <trkpt lat="50.73406" lon="5.37813">
        <ele>103</ele>
        <time>2019-01-20T10:03:08Z</time>
      </trkpt>
      <trkpt lat="50.73375" lon="5.3783">
        <ele>101</ele>
        <time>2019-01-20T10:04:08Z</time>
      </trkpt>
      <trkpt lat="50.7336" lon="5.3784">
        <ele>99</ele>
        <time>2019-01-20T10:05:08Z</time>
      </trkpt>
      <trkpt lat="50.73302" lon="5.37885">
        <ele>96</ele>
        <time>2019-01-20T10:06:08Z</time>
      </trkpt>
      <trkpt lat="50.73237" lon="5.3795">
        <ele>95</ele>
        <time>2019-01-20T10:07:08Z</time>
      </trkpt>
      <trkpt lat="50.73223" lon="5.37954">
        <ele>96</ele>
        <time>2019-01-20T10:08:08Z</time>
      </trkpt>
      <trkpt lat="50.73181" lon="5.37896">
        <ele>97</ele>
        <time>2019-01-20T10:09:08Z</time>
      </trkpt>
      <trkpt lat="50.73169" lon="5.37889">
        <ele>97</ele>
        <time>2019-01-20T10:10:08Z</time>
      </trkpt>
      <trkpt lat="50.73162" lon="5.37889">
        <ele>97</ele>
        <time>2019-01-20T10:11:08Z</time>
      </trkpt>
      <trkpt lat="50.73152" lon="5.37891">
        <ele>98</ele>
        <time>2019-01-20T10:12:08Z</time>
      </trkpt>
      <trkpt lat="50.73084" lon="5.37902">
        <ele>100</ele>
        <time>2019-01-20T10:13:08Z</time>
      </trkpt>
      <trkpt lat="50.73057" lon="5.37911">
        <ele>101</ele>
        <time>2019-01-20T10:14:08Z</time>
      </trkpt>
      <trkpt lat="50.73043" lon="5.37923">
        <ele>102</ele>
        <time>2019-01-20T10:15:08Z</time>
      </trkpt>
      <trkpt lat="50.73039" lon="5.37939">
        <ele>102</ele>
        <time>2019-01-20T10:16:08Z</time>
      </trkpt>
      <trkpt lat="50.73026" lon="5.37979">
        <ele>101</ele>
        <time>2019-01-20T10:17:08Z</time>
      </trkpt>
      <trkpt lat="50.72991" lon="5.38045">
        <ele>100</ele>
        <time>2019-01-20T10:18:08Z</time>
      </trkpt>
      <trkpt lat="50.72958" lon="5.3808">
        <ele>100</ele>
        <time>2019-01-20T10:19:08Z</time>
      </trkpt>
      <trkpt lat="50.72913" lon="5.38115">
        <ele>99</ele>
        <time>2019-01-20T10:20:08Z</time>
      </trkpt>
      <trkpt lat="50.72849" lon="5.38153">
        <ele>98</ele>
        <time>2019-01-20T10:21:08Z</time>
      </trkpt>
      <trkpt lat="50.72833" lon="5.38167">
        <ele>98</ele>
        <time>2019-01-20T10:22:08Z</time>
      </trkpt>
      <trkpt lat="50.72811" lon="5.3819">
        <ele>98</ele>
        <time>2019-01-20T10:23:08Z</time>
      </trkpt>
      <trkpt lat="50.72785" lon="5.3822">
        <ele>98</ele>
        <time>2019-01-20T10:24:08Z</time>
      </trkpt>
      <trkpt lat="50.72743" lon="5.3827">
        <ele>98</ele>
        <time>2019-01-20T10:25:08Z</time>
      </trkpt>
      <trkpt lat="50.72699" lon="5.38326">
        <ele>98</ele>
        <time>2019-01-20T10:26:08Z</time>
      </trkpt>
      <trkpt lat="50.72627" lon="5.38442">
        <ele>101</ele>
        <time>2019-01-20T10:27:08Z</time>
      </trkpt>
      <trkpt lat="50.7255" lon="5.3856">
        <ele>108</ele>
        <time>2019-01-20T10:28:08Z</time>
      </trkpt>
      <trkpt lat="50.72533" lon="5.38578">
        <ele>108</ele>
        <time>2019-01-20T10:29:08Z</time>
      </trkpt>
      <trkpt lat="50.72496" lon="5.38604">
        <ele>110</ele>
        <time>2019-01-20T10:30:08Z</time>
      </trkpt>
      <trkpt lat="50.72481" lon="5.38616">
        <ele>110</ele>
        <time>2019-01-20T10:31:08Z</time>
      </trkpt>
      <trkpt lat="50.72458" lon="5.38636">
        <ele>111</ele>
        <time>2019-01-20T10:32:08Z</time>
      </trkpt>
      <trkpt lat="50.72451" lon="5.38643">
        <ele>111</ele>
        <time>2019-01-20T10:33:08Z</time>
      </trkpt>
      <trkpt lat="50.72433" lon="5.38672">
        <ele>111</ele>
        <time>2019-01-20T10:34:08Z</time>
      </trkpt>
      <trkpt lat="50.72399" lon="5.38732">
        <ele>113</ele>
        <time>2019-01-20T10:35:08Z</time>
      </trkpt>
      <trkpt lat="50.72373" lon="5.38782">
        <ele>113</ele>
        <time>2019-01-20T10:36:08Z</time>
      </trkpt>
      <trkpt lat="50.72342" lon="5.38851">
        <ele>113</ele>
        <time>2019-01-20T10:37:08Z</time>
      </trkpt>
      <trkpt lat="50.72272" lon="5.38996">
        <ele>113</ele>
        <time>2019-01-20T10:38:08Z</time>
      </trkpt>
      <trkpt lat="50.72216" lon="5.39139">
        <ele>116</ele>
        <time>2019-01-20T10:39:08Z</time>
      </trkpt>
      <trkpt lat="50.72203" lon="5.39155">
        <ele>117</ele>
        <time>2019-01-20T10:40:08Z</time>
      </trkpt>
      <trkpt lat="50.72186" lon="5.39173">
        <ele>117</ele>
        <time>2019-01-20T10:41:08Z</time>
      </trkpt>
      <trkpt lat="50.72174" lon="5.3919">
        <ele>118</ele>
        <time>2019-01-20T10:42:08Z</time>
      </trkpt>
      <trkpt lat="50.72161" lon="5.3921">
        <ele>118</ele>
        <time>2019-01-20T10:43:08Z</time>
      </trkpt>
      <trkpt lat="50.72132" lon="5.39274">
        <ele>120</ele>
        <time>2019-01-20T10:44:08Z</time>
      </trkpt>
      <trkpt lat="50.72105" lon="5.39347">
        <ele>120</ele>
        <time>2019-01-20T10:45:08Z</time>
      </trkpt>
      <trkpt lat="50.72073" lon="5.3941">
        <ele>122</ele>
        <time>2019-01-20T10:46:08Z</time>
      </trkpt>
      <trkpt lat="50.72048" lon="5.39434">
        <ele>122</ele>
        <time>2019-01-20T10:47:08Z</time>
      </trkpt>
      <trkpt lat="50.72015" lon="5.39464">
        <ele>122</ele>
        <time>2019-01-20T10:48:08Z</time>
      </trkpt>
      <trkpt lat="50.71916" lon="5.39549">
        <ele>120</ele>
        <time>2019-01-20T10:49:08Z</time>
      </trkpt>
      <trkpt lat="50.71896" lon="5.39571">
        <ele>119</ele>
        <time>2019-01-20T10:50:08Z</time>
      </trkpt>
      <trkpt lat="50.71857" lon="5.39626">
        <ele>118</ele>
        <time>2019-01-20T10:51:08Z</time>
      </trkpt>
      <trkpt lat="50.71748" lon="5.39762">
        <ele>113</ele>
        <time>2019-01-20T10:52:08Z</time>
      </trkpt>
      <trkpt lat="50.71743" lon="5.39763">
        <ele>113</ele>
        <time>2019-01-20T10:53:08Z</time>
      </trkpt>
      <trkpt lat="50.71738" lon="5.39765">
        <ele>113</ele>
        <time>2019-01-20T10:54:08Z</time>
      </trkpt>
      <trkpt lat="50.71735" lon="5.39772">
        <ele>113</ele>
        <time>2019-01-20T10:55:08Z</time>
      </trkpt>
      <trkpt lat="50.71737" lon="5.3978">
        <ele>112</ele>
        <time>2019-01-20T10:56:08Z</time>
      </trkpt>
      <trkpt lat="50.71726" lon="5.39798">
        <ele>112</ele>
        <time>2019-01-20T10:57:08Z</time>
      </trkpt>
      <trkpt lat="50.717" lon="5.39838">
        <ele>113</ele>
        <time>2019-01-20T10:58:08Z</time>
      </trkpt>
      <trkpt lat="50.71663" lon="5.39876">
        <ele>115</ele>
        <time>2019-01-20T10:59:08Z</time>
      </trkpt>
      <trkpt lat="50.71637" lon="5.39927">
        <ele>117</ele>
        <time>2019-01-20T11:00:08Z</time>
      </trkpt>
      <trkpt lat="50.71592" lon="5.39989">
        <ele>118</ele>
        <time>2019-01-20T11:01:08Z</time>
      </trkpt>
      <trkpt lat="50.71473" lon="5.40158">
        <ele>122</ele>
        <time>2019-01-20T11:02:08Z</time>
      </trkpt>
      <trkpt lat="50.71395" lon="5.40271">
        <ele>123</ele>
        <time>2019-01-20T11:03:08Z</time>
      </trkpt>
      <trkpt lat="50.71357" lon="5.40342">
        <ele>123</ele>
        <time>2019-01-20T11:04:08Z</time>
      </trkpt>
      <trkpt lat="50.71314" lon="5.4045">
        <ele>124</ele>
        <time>2019-01-20T11:05:08Z</time>
      </trkpt>
      <trkpt lat="50.71305" lon="5.40476">
        <ele>125</ele>
        <time>2019-01-20T11:06:08Z</time>
      </trkpt>
      <trkpt lat="50.71266" lon="5.40618">
        <ele>125</ele>
        <time>2019-01-20T11:07:08Z</time>
      </trkpt>
      <trkpt lat="50.7124" lon="5.40686">
        <ele>126</ele>
        <time>2019-01-20T11:08:08Z</time>
      </trkpt>
      <trkpt lat="50.71161" lon="5.40859">
        <ele>128</ele>
        <time>2019-01-20T11:09:08Z</time>
      </trkpt>
      <trkpt lat="50.71142" lon="5.40921">
        <ele>127</ele>
        <time>2019-01-20T11:10:08Z</time>
      </trkpt>
      <trkpt lat="50.7109" lon="5.41105">
        <ele>126</ele>
        <time>2019-01-20T11:11:08Z</time>
      </trkpt>
      <trkpt lat="50.71056" lon="5.41201">
        <ele>129</ele>
        <time>2019-01-20T11:12:08Z</time>
      </trkpt>
      <trkpt lat="50.71029" lon="5.4127">
        <ele>131</ele>
        <time>2019-01-20T11:13:08Z</time>
      </trkpt>
      <trkpt lat="50.70998" lon="5.41341">
        <ele>132</ele>
        <time>2019-01-20T11:14:08Z</time>
      </trkpt>
      <trkpt lat="50.70919" lon="5.41492">
        <ele>134</ele>
        <time>2019-01-20T11:15:08Z</time>
      </trkpt>
      <trkpt lat="50.70855" lon="5.41606">
        <ele>133</ele>
        <time>2019-01-20T11:16:08Z</time>
      </trkpt>
      <trkpt lat="50.70848" lon="5.41612">
        <ele>133</ele>
        <time>2019-01-20T11:17:08Z</time>
      </trkpt>
      <trkpt lat="50.7084" lon="5.41615">
        <ele>132</ele>
        <time>2019-01-20T11:18:08Z</time>
      </trkpt>
      <trkpt lat="50.70763" lon="5.41624">
        <ele>132</ele>
        <time>2019-01-20T11:19:08Z</time>
      </trkpt>
      <trkpt lat="50.70649" lon="5.41637">
        <ele>131</ele>
        <time>2019-01-20T11:20:08Z</time>
      </trkpt>
      <trkpt lat="50.70635" lon="5.41681">
        <ele>131</ele>
        <time>2019-01-20T11:21:08Z</time>
      </trkpt>
      <trkpt lat="50.70613" lon="5.41751">
        <ele>130</ele>
        <time>2019-01-20T11:22:08Z</time>
      </trkpt>
      <trkpt lat="50.70599" lon="5.41819">
        <ele>130</ele>
        <time>2019-01-20T11:23:08Z</time>
      </trkpt>
      <trkpt lat="50.70594" lon="5.41848">
        <ele>130</ele>
        <time>2019-01-20T11:24:08Z</time>
      </trkpt>
      <trkpt lat="50.70588" lon="5.41889">
        <ele>131</ele>
        <time>2019-01-20T11:25:08Z</time>
      </trkpt>
      <trkpt lat="50.70555" lon="5.42159">
        <ele>136</ele>
        <time>2019-01-20T11:26:08Z</time>
      </trkpt>
      <trkpt lat="50.70485" lon="5.42447">
        <ele>138</ele>
        <time>2019-01-20T11:27:08Z</time>
      </trkpt>
      <trkpt lat="50.70465" lon="5.4253">
        <ele>136</ele>
        <time>2019-01-20T11:28:08Z</time>
      </trkpt>
      <trkpt lat="50.70429" lon="5.427">
        <ele>134</ele>
        <time>2019-01-20T11:29:08Z</time>
      </trkpt>
      <trkpt lat="50.70389" lon="5.42827">
        <ele>133</ele>
        <time>2019-01-20T11:30:08Z</time>
      </trkpt>
      <trkpt lat="50.703" lon="5.43098">
        <ele>130</ele>
        <time>2019-01-20T11:31:08Z</time>
      </trkpt>
      <trkpt lat="50.70278" lon="5.43136">
        <ele>130</ele>
        <time>2019-01-20T11:32:08Z</time>
      </trkpt>
      <trkpt lat="50.70268" lon="5.43158">
        <ele>130</ele>
        <time>2019-01-20T11:33:08Z</time>
      </trkpt>
      <trkpt lat="50.70255" lon="5.43189">
        <ele>131</ele>
        <time>2019-01-20T11:34:08Z</time>
      </trkpt>
      <trkpt lat="50.70249" lon="5.43235">
        <ele>132</ele>
        <time>2019-01-20T11:35:08Z</time>
      </trkpt>
      <trkpt lat="50.70247" lon="5.43288">
        <ele>132</ele>
        <time>2019-01-20T11:36:08Z</time>
      </trkpt>
      <trkpt lat="50.70246" lon="5.43325">
        <ele>133</ele>
        <time>2019-01-20T11:37:08Z</time>
      </trkpt>
      <trkpt lat="50.70246" lon="5.4337">
        <ele>133</ele>
        <time>2019-01-20T11:38:08Z</time>
      </trkpt>
      <trkpt lat="50.70249" lon="5.43437">
        <ele>133</ele>
        <time>2019-01-20T11:39:08Z</time>
      </trkpt>
      <trkpt lat="50.70266" lon="5.43486">
        <ele>133</ele>
        <time>2019-01-20T11:40:08Z</time>
      </trkpt>
      <trkpt lat="50.7029" lon="5.43538">
        <ele>135</ele>
        <time>2019-01-20T11:41:08Z</time>
      </trkpt>
      <trkpt lat="50.70337" lon="5.43636">
        <ele>138</ele>
        <time>2019-01-20T11:42:08Z</time>
      </trkpt>
      <trkpt lat="50.70402" lon="5.43836">
        <ele>142</ele>
        <time>2019-01-20T11:43:08Z</time>
      </trkpt>
      <trkpt lat="50.70438" lon="5.43939">
        <ele>142</ele>
        <time>2019-01-20T11:44:08Z</time>
      </trkpt>
      <trkpt lat="50.70439" lon="5.43951">
        <ele>142</ele>
        <time>2019-01-20T11:45:08Z</time>
      </trkpt>
      <trkpt lat="50.70439" lon="5.43981">
        <ele>142</ele>
        <time>2019-01-20T11:46:08Z</time>
      </trkpt>
      <trkpt lat="50.70435" lon="5.4403">
        <ele>142</ele>
        <time>2019-01-20T11:47:08Z</time>
      </trkpt>
      <trkpt lat="50.70349" lon="5.4408">
        <ele>140</ele>
        <time>2019-01-20T11:48:08Z</time>
      </trkpt>
      <trkpt lat="50.70318" lon="5.44077">
        <ele>138</ele>
        <time>2019-01-20T11:49:08Z</time>
      </trkpt>
      <trkpt lat="50.70307" lon="5.44073">
        <ele>138</ele>
        <time>2019-01-20T11:50:08Z</time>
      </trkpt>
      <trkpt lat="50.70238" lon="5.44047">
        <ele>135</ele>
        <time>2019-01-20T11:51:08Z</time>
      </trkpt>
      <trkpt lat="50.70153" lon="5.44012">
        <ele>135</ele>
        <time>2019-01-20T11:52:08Z</time>
      </trkpt>
      <trkpt lat="50.70076" lon="5.43989">
        <ele>138</ele>
        <time>2019-01-20T11:53:08Z</time>
      </trkpt>
      <trkpt lat="50.70047" lon="5.43981">
        <ele>138</ele>
        <time>2019-01-20T11:54:08Z</time>
      </trkpt>
      <trkpt lat="50.69954" lon="5.43969">
        <ele>139</ele>
        <time>2019-01-20T11:55:08Z</time>
      </trkpt>
      <trkpt lat="50.69859" lon="5.43956">
        <ele>141</ele>
        <time>2019-01-20T11:56:08Z</time>
      </trkpt>
      <trkpt lat="50.69821" lon="5.43944">
        <ele>141</ele>
        <time>2019-01-20T11:57:08Z</time>
      </trkpt>
      <trkpt lat="50.69653" lon="5.43867">
        <ele>145</ele>
        <time>2019-01-20T11:58:08Z</time>
      </trkpt>
      <trkpt lat="50.69606" lon="5.43844">
        <ele>145</ele>
        <time>2019-01-20T11:59:08Z</time>
      </trkpt>
      <trkpt lat="50.69554" lon="5.4382">
        <ele>145</ele>
        <time>2019-01-20T12:00:08Z</time>
      </trkpt>
      <trkpt lat="50.69532" lon="5.43811">
        <ele>144</ele>
        <time>2019-01-20T12:01:08Z</time>
      </trkpt>
      <trkpt lat="50.69517" lon="5.4381">
        <ele>144</ele>
        <time>2019-01-20T12:02:08Z</time>
      </trkpt>
      <trkpt lat="50.69471" lon="5.43819">
        <ele>143</ele>
        <time>2019-01-20T12:03:08Z</time>
      </trkpt>
      <trkpt lat="50.69373" lon="5.43836">
        <ele>142</ele>
        <time>2019-01-20T12:04:08Z</time>
      </trkpt>
      <trkpt lat="50.69349" lon="5.43841">
        <ele>143</ele>
        <time>2019-01-20T12:05:08Z</time>
      </trkpt>
      <trkpt lat="50.69343" lon="5.43841">
        <ele>143</ele>
        <time>2019-01-20T12:06:08Z</time>
      </trkpt>
      <trkpt lat="50.69335" lon="5.43842">
        <ele>143</ele>
        <time>2019-01-20T12:07:08Z</time>
      </trkpt>
      <trkpt lat="50.69326" lon="5.4384">
        <ele>143</ele>
        <time>2019-01-20T12:08:08Z</time>
      </trkpt>
      <trkpt lat="50.69298" lon="5.4383">
        <ele>143</ele>
        <time>2019-01-20T12:09:08Z</time>
      </trkpt>
      <trkpt lat="50.69287" lon="5.43825">
        <ele>144</ele>
        <time>2019-01-20T12:10:08Z</time>
      </trkpt>
      <trkpt lat="50.69245" lon="5.43802">
        <ele>144</ele>
        <time>2019-01-20T12:11:08Z</time>
      </trkpt>
      <trkpt lat="50.69207" lon="5.4378">
        <ele>143</ele>
        <time>2019-01-20T12:12:08Z</time>
      </trkpt>
      <trkpt lat="50.69094" lon="5.43721">
        <ele>144</ele>
        <time>2019-01-20T12:13:08Z</time>
      </trkpt>
      <trkpt lat="50.69049" lon="5.43701">
        <ele>145</ele>
        <time>2019-01-20T12:14:08Z</time>
      </trkpt>
      <trkpt lat="50.69006" lon="5.43682">
        <ele>145</ele>
        <time>2019-01-20T12:15:08Z</time>
      </trkpt>
      <trkpt lat="50.68967" lon="5.43673">
        <ele>146</ele>
        <time>2019-01-20T12:16:08Z</time>
      </trkpt>
      <trkpt lat="50.68734" lon="5.43617">
        <ele>146</ele>
        <time>2019-01-20T12:17:08Z</time>
      </trkpt>
      <trkpt lat="50.68593" lon="5.43585">
        <ele>146</ele>
        <time>2019-01-20T12:18:08Z</time>
      </trkpt>
      <trkpt lat="50.68534" lon="5.43572">
        <ele>146</ele>
        <time>2019-01-20T12:19:08Z</time>
      </trkpt>
      <trkpt lat="50.68481" lon="5.43558">
        <ele>146</ele>
        <time>2019-01-20T12:20:08Z</time>
      </trkpt>
      <trkpt lat="50.68455" lon="5.43552">
        <ele>146</ele>
        <time>2019-01-20T12:21:08Z</time>
      </trkpt>
      <trkpt lat="50.68435" lon="5.43546">
        <ele>146</ele>
        <time>2019-01-20T12:22:08Z</time>
      </trkpt>
      <trkpt lat="50.68401" lon="5.43533">
        <ele>147</ele>
        <time>2019-01-20T12:23:08Z</time>
      </trkpt>
      <trkpt lat="50.68367" lon="5.43517">
        <ele>148</ele>
        <time>2019-01-20T12:24:08Z</time>
      </trkpt>
      <trkpt lat="50.68347" lon="5.43508">
        <ele>149</ele>
        <time>2019-01-20T12:25:08Z</time>
      </trkpt>
      <trkpt lat="50.68324" lon="5.43495">
        <ele>150</ele>
        <time>2019-01-20T12:26:08Z</time>
      </trkpt>
      <trkpt lat="50.68306" lon="5.43485">
        <ele>150</ele>
        <time>2019-01-20T12:27:08Z</time>
      </trkpt>
      <trkpt lat="50.6824" lon="5.43451">
        <ele>148</ele>
        <time>2019-01-20T12:28:08Z</time>
      </trkpt>
      <trkpt lat="50.68215" lon="5.43437">
        <ele>148</ele>
        <time>2019-01-20T12:29:08Z</time>
      </trkpt>
      <trkpt lat="50.68206" lon="5.43439">
        <ele>148</ele>
        <time>2019-01-20T12:30:08Z</time>
      </trkpt>
      <trkpt lat="50.68197" lon="5.43444">
        <ele>148</ele>
        <time>2019-01-20T12:31:08Z</time>
      </trkpt>
      <trkpt lat="50.6819" lon="5.43455">
        <ele>148</ele>
        <time>2019-01-20T12:32:08Z</time>
      </trkpt>
      <trkpt lat="50.68129" lon="5.43549">
        <ele>148</ele>
        <time>2019-01-20T12:33:08Z</time>
      </trkpt>
      <trkpt lat="50.68116" lon="5.43567">
        <ele>149</ele>
        <time>2019-01-20T12:34:08Z</time>
      </trkpt>
      <trkpt lat="50.68106" lon="5.43586">
        <ele>149</ele>
        <time>2019-01-20T12:35:08Z</time>
      </trkpt>
      <trkpt lat="50.68083" lon="5.43642">
        <ele>150</ele>
        <time>2019-01-20T12:36:08Z</time>
      </trkpt>
      <trkpt lat="50.68066" lon="5.4368">
        <ele>152</ele>
        <time>2019-01-20T12:37:08Z</time>
      </trkpt>
      <trkpt lat="50.68052" lon="5.43696">
        <ele>152</ele>
        <time>2019-01-20T12:38:08Z</time>
      </trkpt>
      <trkpt lat="50.68022" lon="5.43724">
        <ele>153</ele>
        <time>2019-01-20T12:39:08Z</time>
      </trkpt>
      <trkpt lat="50.68" lon="5.43741">
        <ele>153</ele>
        <time>2019-01-20T12:40:08Z</time>
      </trkpt>
      <trkpt lat="50.67988" lon="5.43741">
        <ele>153</ele>
        <time>2019-01-20T12:41:08Z</time>
      </trkpt>
      <trkpt lat="50.67973" lon="5.43739">
        <ele>154</ele>
        <time>2019-01-20T12:42:08Z</time>
      </trkpt>
      <trkpt lat="50.67945" lon="5.43719">
        <ele>154</ele>
        <time>2019-01-20T12:43:08Z</time>
      </trkpt>
      <trkpt lat="50.67925" lon="5.43716">
        <ele>155</ele>
        <time>2019-01-20T12:44:08Z</time>
      </trkpt>
      <trkpt lat="50.67908" lon="5.43736">
        <ele>155</ele>
        <time>2019-01-20T12:45:08Z</time>
      </trkpt>
      <trkpt lat="50.67893" lon="5.43765">
        <ele>156</ele>
        <time>2019-01-20T12:46:08Z</time>
      </trkpt>
      <trkpt lat="50.67871" lon="5.43803">
        <ele>156</ele>
        <time>2019-01-20T12:47:08Z</time>
      </trkpt>
      <trkpt lat="50.67853" lon="5.43815">
        <ele>156</ele>
        <time>2019-01-20T12:48:08Z</time>
      </trkpt>
      <trkpt lat="50.67839" lon="5.43818">
        <ele>156</ele>
        <time>2019-01-20T12:49:08Z</time>
      </trkpt>
      <trkpt lat="50.67817" lon="5.4381">
        <ele>156</ele>
        <time>2019-01-20T12:50:08Z</time>
      </trkpt>
      <trkpt lat="50.678" lon="5.43795">
        <ele>156</ele>
        <time>2019-01-20T12:51:08Z</time>
      </trkpt>
      <trkpt lat="50.67756" lon="5.43755">
        <ele>155</ele>
        <time>2019-01-20T12:52:08Z</time>
      </trkpt>
      <trkpt lat="50.67619" lon="5.43621">
        <ele>154</ele>
        <time>2019-01-20T12:53:08Z</time>
      </trkpt>
      <trkpt lat="50.67601" lon="5.43602">
        <ele>154</ele>
        <time>2019-01-20T12:54:08Z</time>
      </trkpt>
      <trkpt lat="50.6759" lon="5.4361">
        <ele>154</ele>
        <time>2019-01-20T12:55:08Z</time>
      </trkpt>
      <trkpt lat="50.67577" lon="5.43606">
        <ele>154</ele>
        <time>2019-01-20T12:56:08Z</time>
      </trkpt>
      <trkpt lat="50.67518" lon="5.43587">
        <ele>155</ele>
        <time>2019-01-20T12:57:08Z</time>
      </trkpt>
      <trkpt lat="50.67418" lon="5.43553">
        <ele>156</ele>
        <time>2019-01-20T12:58:08Z</time>
      </trkpt>
      <trkpt lat="50.67354" lon="5.43532">
        <ele>157</ele>
        <time>2019-01-20T12:59:08Z</time>
      </trkpt>
      <trkpt lat="50.67309" lon="5.43519">
        <ele>156</ele>
        <time>2019-01-20T13:00:08Z</time>
      </trkpt>
      <trkpt lat="50.67258" lon="5.43508">
        <ele>155</ele>
        <time>2019-01-20T13:01:08Z</time>
      </trkpt>
      <trkpt lat="50.67222" lon="5.43502">
        <ele>154</ele>
        <time>2019-01-20T13:02:08Z</time>
      </trkpt>
      <trkpt lat="50.67177" lon="5.43485">
        <ele>153</ele>
        <time>2019-01-20T13:03:08Z</time>
      </trkpt>
      <trkpt lat="50.67159" lon="5.43477">
        <ele>152</ele>
        <time>2019-01-20T13:04:08Z</time>
      </trkpt>
      <trkpt lat="50.67119" lon="5.43447">
        <ele>153</ele>
        <time>2019-01-20T13:05:08Z</time>
      </trkpt>
      <trkpt lat="50.6708" lon="5.43417">
        <ele>153</ele>
        <time>2019-01-20T13:06:08Z</time>
      </trkpt>
      <trkpt lat="50.67046" lon="5.43394">
        <ele>153</ele>
        <time>2019-01-20T13:07:08Z</time>
      </trkpt>
      <trkpt lat="50.67029" lon="5.43379">
        <ele>153</ele>
        <time>2019-01-20T13:08:08Z</time>
      </trkpt>
      <trkpt lat="50.66977" lon="5.43347">
        <ele>152</ele>
        <time>2019-01-20T13:09:08Z</time>
      </trkpt>
      <trkpt lat="50.66939" lon="5.43327">
        <ele>153</ele>
        <time>2019-01-20T13:10:08Z</time>
      </trkpt>
      <trkpt lat="50.66911" lon="5.43321">
        <ele>153</ele>
        <time>2019-01-20T13:11:08Z</time>
      </trkpt>
      <trkpt lat="50.66889" lon="5.4332">
        <ele>154</ele>
        <time>2019-01-20T13:12:08Z</time>
      </trkpt>
      <trkpt lat="50.66842" lon="5.4332">
        <ele>155</ele>
        <time>2019-01-20T13:13:08Z</time>
      </trkpt>
      <trkpt lat="50.66813" lon="5.43318">
        <ele>155</ele>
        <time>2019-01-20T13:14:08Z</time>
      </trkpt>
      <trkpt lat="50.66797" lon="5.43314">
        <ele>155</ele>
        <time>2019-01-20T13:15:08Z</time>
      </trkpt>
      <trkpt lat="50.66781" lon="5.43309">
        <ele>156</ele>
        <time>2019-01-20T13:16:08Z</time>
      </trkpt>
      <trkpt lat="50.66681" lon="5.43264">
        <ele>157</ele>
        <time>2019-01-20T13:17:08Z</time>
      </trkpt>
      <trkpt lat="50.66586" lon="5.43221">
        <ele>157</ele>
        <time>2019-01-20T13:18:08Z</time>
      </trkpt>
      <trkpt lat="50.66509" lon="5.43189">
        <ele>158</ele>
        <time>2019-01-20T13:19:08Z</time>
      </trkpt>
      <trkpt lat="50.66459" lon="5.43164">
        <ele>157</ele>
        <time>2019-01-20T13:20:08Z</time>
      </trkpt>
      <trkpt lat="50.66427" lon="5.43149">
        <ele>156</ele>
        <time>2019-01-20T13:21:08Z</time>
      </trkpt>
      <trkpt lat="50.66403" lon="5.43139">
        <ele>155</ele>
        <time>2019-01-20T13:22:08Z</time>
      </trkpt>
      <trkpt lat="50.66344" lon="5.43129">
        <ele>154</ele>
        <time>2019-01-20T13:23:08Z</time>
      </trkpt>
      <trkpt lat="50.66313" lon="5.43135">
        <ele>155</ele>
        <time>2019-01-20T13:24:08Z</time>
      </trkpt>
      <trkpt lat="50.66282" lon="5.43144">
        <ele>155</ele>
        <time>2019-01-20T13:25:08Z</time>
      </trkpt>
      <trkpt lat="50.66243" lon="5.43165">
        <ele>156</ele>
        <time>2019-01-20T13:26:08Z</time>
      </trkpt>
      <trkpt lat="50.66214" lon="5.43171">
        <ele>157</ele>
        <time>2019-01-20T13:27:08Z</time>
      </trkpt>
      <trkpt lat="50.66181" lon="5.43173">
        <ele>158</ele>
        <time>2019-01-20T13:28:08Z</time>
      </trkpt>
      <trkpt lat="50.66159" lon="5.43164">
        <ele>158</ele>
        <time>2019-01-20T13:29:08Z</time>
      </trkpt>
      <trkpt lat="50.6604" lon="5.43123">
        <ele>160</ele>
        <time>2019-01-20T13:30:08Z</time>
      </trkpt>
      <trkpt lat="50.66014" lon="5.43113">
        <ele>160</ele>
        <time>2019-01-20T13:31:08Z</time>
      </trkpt>
      <trkpt lat="50.65973" lon="5.43117">
        <ele>161</ele>
        <time>2019-01-20T13:32:08Z</time>
      </trkpt>
      <trkpt lat="50.65957" lon="5.43118">
        <ele>162</ele>
        <time>2019-01-20T13:33:08Z</time>
      </trkpt>
      <trkpt lat="50.65941" lon="5.43112">
        <ele>162</ele>
        <time>2019-01-20T13:34:08Z</time>
      </trkpt>
      <trkpt lat="50.65909" lon="5.43097">
        <ele>164</ele>
        <time>2019-01-20T13:35:08Z</time>
      </trkpt>
      <trkpt lat="50.65879" lon="5.43083">
        <ele>164</ele>
        <time>2019-01-20T13:36:08Z</time>
      </trkpt>
      <trkpt lat="50.65842" lon="5.43065">
        <ele>163</ele>
        <time>2019-01-20T13:37:08Z</time>
      </trkpt>
      <trkpt lat="50.65823" lon="5.43057">
        <ele>163</ele>
        <time>2019-01-20T13:38:08Z</time>
      </trkpt>
      <trkpt lat="50.65726" lon="5.43024">
        <ele>162</ele>
        <time>2019-01-20T13:39:08Z</time>
      </trkpt>
      <trkpt lat="50.65681" lon="5.4301">
        <ele>163</ele>
        <time>2019-01-20T13:40:08Z</time>
      </trkpt>
      <trkpt lat="50.65627" lon="5.42984">
        <ele>163</ele>
        <time>2019-01-20T13:41:08Z</time>
      </trkpt>
      <trkpt lat="50.65574" lon="5.42954">
        <ele>162</ele>
        <time>2019-01-20T13:42:08Z</time>
      </trkpt>
      <trkpt lat="50.65546" lon="5.42938">
        <ele>163</ele>
        <time>2019-01-20T13:43:08Z</time>
      </trkpt>
      <trkpt lat="50.65509" lon="5.42922">
        <ele>164</ele>
        <time>2019-01-20T13:44:08Z</time>
      </trkpt>
      <trkpt lat="50.65482" lon="5.42911">
        <ele>164</ele>
        <time>2019-01-20T13:45:08Z</time>
      </trkpt>
      <trkpt lat="50.6545" lon="5.429">
        <ele>163</ele>
        <time>2019-01-20T13:46:08Z</time>
      </trkpt>
      <trkpt lat="50.65437" lon="5.42896">
        <ele>163</ele>
        <time>2019-01-20T13:47:08Z</time>
      </trkpt>
      <trkpt lat="50.6539" lon="5.42903">
        <ele>162</ele>
        <time>2019-01-20T13:48:08Z</time>
      </trkpt>
      <trkpt lat="50.65359" lon="5.42905">
        <ele>162</ele>
        <time>2019-01-20T13:49:08Z</time>
      </trkpt>
      <trkpt lat="50.65326" lon="5.42899">
        <ele>162</ele>
        <time>2019-01-20T13:50:08Z</time>
      </trkpt>
      <trkpt lat="50.65286" lon="5.42888">
        <ele>162</ele>
        <time>2019-01-20T13:51:08Z</time>
      </trkpt>
      <trkpt lat="50.65232" lon="5.42891">
        <ele>162</ele>
        <time>2019-01-20T13:52:08Z</time>
      </trkpt>
      <trkpt lat="50.65211" lon="5.42891">
        <ele>162</ele>
        <time>2019-01-20T13:53:08Z</time>
      </trkpt>
      <trkpt lat="50.6515" lon="5.42872">
        <ele>162</ele>
        <time>2019-01-20T13:54:08Z</time>
      </trkpt>
      <trkpt lat="50.651" lon="5.42861">
        <ele>163</ele>
        <time>2019-01-20T13:55:08Z</time>
      </trkpt>
      <trkpt lat="50.65083" lon="5.42851">
        <ele>163</ele>
        <time>2019-01-20T13:56:08Z</time>
      </trkpt>
      <trkpt lat="50.65006" lon="5.42809">
        <ele>164</ele>
        <time>2019-01-20T13:57:08Z</time>
      </trkpt>
      <trkpt lat="50.64977" lon="5.42797">
        <ele>164</ele>
        <time>2019-01-20T13:58:08Z</time>
      </trkpt>
      <trkpt lat="50.64912" lon="5.42804">
        <ele>164</ele>
        <time>2019-01-20T13:59:08Z</time>
      </trkpt>
      <trkpt lat="50.64836" lon="5.42794">
        <ele>164</ele>
        <time>2019-01-20T14:00:08Z</time>
      </trkpt>
      <trkpt lat="50.64803" lon="5.42787">
        <ele>165</ele>
        <time>2019-01-20T14:01:08Z</time>
      </trkpt>
      <trkpt lat="50.64774" lon="5.42776">
        <ele>165</ele>
        <time>2019-01-20T14:02:08Z</time>
      </trkpt>
      <trkpt lat="50.64735" lon="5.42742">
        <ele>166</ele>
        <time>2019-01-20T14:03:08Z</time>
      </trkpt>
      <trkpt lat="50.64702" lon="5.42704">
        <ele>168</ele>
        <time>2019-01-20T14:04:08Z</time>
      </trkpt>
      <trkpt lat="50.64666" lon="5.42752">
        <ele>167</ele>
        <time>2019-01-20T14:05:08Z</time>
      </trkpt>
      <trkpt lat="50.64655" lon="5.42758">
        <ele>167</ele>
        <time>2019-01-20T14:06:08Z</time>
      </trkpt>
      <trkpt lat="50.64643" lon="5.4275">
        <ele>168</ele>
        <time>2019-01-20T14:07:08Z</time>
      </trkpt>
      <trkpt lat="50.64628" lon="5.42731">
        <ele>168</ele>
        <time>2019-01-20T14:08:08Z</time>
      </trkpt>
      <trkpt lat="50.64614" lon="5.42709">
        <ele>169</ele>
        <time>2019-01-20T14:09:08Z</time>
      </trkpt>
      <trkpt lat="50.64588" lon="5.42675">
        <ele>169</ele>
        <time>2019-01-20T14:10:08Z</time>
      </trkpt>
      <trkpt lat="50.64567" lon="5.4265">
        <ele>170</ele>
        <time>2019-01-20T14:11:08Z</time>
      </trkpt>
      <trkpt lat="50.6454" lon="5.42623">
        <ele>171</ele>
        <time>2019-01-20T14:12:08Z</time>
      </trkpt>
      <trkpt lat="50.6446" lon="5.4257">
        <ele>172</ele>
        <time>2019-01-20T14:13:08Z</time>
      </trkpt>
      <trkpt lat="50.64434" lon="5.42556">
        <ele>173</ele>
        <time>2019-01-20T14:14:08Z</time>
      </trkpt>
      <trkpt lat="50.64411" lon="5.4255">
        <ele>173</ele>
        <time>2019-01-20T14:15:08Z</time>
      </trkpt>
      <trkpt lat="50.64398" lon="5.42549">
        <ele>173</ele>
        <time>2019-01-20T14:16:08Z</time>
      </trkpt>
      <trkpt lat="50.64386" lon="5.42551">
        <ele>173</ele>
        <time>2019-01-20T14:17:08Z</time>
      </trkpt>
      <trkpt lat="50.64372" lon="5.4255">
        <ele>172</ele>
        <time>2019-01-20T14:18:08Z</time>
      </trkpt>
      <trkpt lat="50.64363" lon="5.42546">
        <ele>172</ele>
        <time>2019-01-20T14:19:08Z</time>
      </trkpt>
      <trkpt lat="50.64353" lon="5.42538">
        <ele>173</ele>
        <time>2019-01-20T14:20:08Z</time>
      </trkpt>
      <trkpt lat="50.64339" lon="5.42515">
        <ele>173</ele>
        <time>2019-01-20T14:21:08Z</time>
      </trkpt>
      <trkpt lat="50.64306" lon="5.4247">
        <ele>174</ele>
        <time>2019-01-20T14:22:08Z</time>
      </trkpt>
      <trkpt lat="50.64294" lon="5.42446">
        <ele>175</ele>
        <time>2019-01-20T14:23:08Z</time>
      </trkpt>
      <trkpt lat="50.64282" lon="5.42457">
        <ele>175</ele>
        <time>2019-01-20T14:24:08Z</time>
      </trkpt>
      <trkpt lat="50.64228" lon="5.42527">
        <ele>176</ele>
        <time>2019-01-20T14:25:08Z</time>
      </trkpt>
      <trkpt lat="50.64203" lon="5.42562">
        <ele>177</ele>
        <time>2019-01-20T14:26:08Z</time>
      </trkpt>
      <trkpt lat="50.64117" lon="5.42677">
        <ele>181</ele>
        <time>2019-01-20T14:27:08Z</time>
      </trkpt>
      <trkpt lat="50.64069" lon="5.42729">
        <ele>182</ele>
        <time>2019-01-20T14:28:08Z</time>
      </trkpt>
      <trkpt lat="50.64035" lon="5.42773">
        <ele>183</ele>
        <time>2019-01-20T14:29:08Z</time>
      </trkpt>
      <trkpt lat="50.64024" lon="5.42779">
        <ele>184</ele>
        <time>2019-01-20T14:30:08Z</time>
      </trkpt>
      <trkpt lat="50.6401" lon="5.42775">
        <ele>184</ele>
        <time>2019-01-20T14:31:08Z</time>
      </trkpt>
      <trkpt lat="50.63991" lon="5.42746">
        <ele>184</ele>
        <time>2019-01-20T14:32:08Z</time>
      </trkpt>
      <trkpt lat="50.63941" lon="5.42656">
        <ele>184</ele>
        <time>2019-01-20T14:33:08Z</time>
      </trkpt>
      <trkpt lat="50.63931" lon="5.42641">
        <ele>184</ele>
        <time>2019-01-20T14:34:08Z</time>
      </trkpt>
      <trkpt lat="50.63919" lon="5.42627">
        <ele>184</ele>
        <time>2019-01-20T14:35:08Z</time>
      </trkpt>
      <trkpt lat="50.63907" lon="5.42619">
        <ele>184</ele>
        <time>2019-01-20T14:36:08Z</time>
      </trkpt>
      <trkpt lat="50.63885" lon="5.42609">
        <ele>184</ele>
        <time>2019-01-20T14:37:08Z</time>
      </trkpt>
      <trkpt lat="50.63862" lon="5.42595">
        <ele>185</ele>
        <time>2019-01-20T14:38:08Z</time>
      </trkpt>
      <trkpt lat="50.6378" lon="5.42552">
        <ele>185</ele>
        <time>2019-01-20T14:39:08Z</time>
      </trkpt>
      <trkpt lat="50.63732" lon="5.42527">
        <ele>185</ele>
        <time>2019-01-20T14:40:08Z</time>
      </trkpt>
      <trkpt lat="50.637" lon="5.42509">
        <ele>184</ele>
        <time>2019-01-20T14:41:08Z</time>
      </trkpt>
      <trkpt lat="50.63702" lon="5.42496">
        <ele>184</ele>
        <time>2019-01-20T14:42:08Z</time>
      </trkpt>
      <trkpt lat="50.63699" lon="5.42485">
        <ele>184</ele>
        <time>2019-01-20T14:43:08Z</time>
      </trkpt>
      <trkpt lat="50.63695" lon="5.42477">
        <ele>183</ele>
        <time>2019-01-20T14:44:08Z</time>
      </trkpt>
      <trkpt lat="50.63687" lon="5.4247">
        <ele>183</ele>
        <time>2019-01-20T14:45:08Z</time>
      </trkpt>
      <trkpt lat="50.63678" lon="5.4247">
        <ele>183</ele>
        <time>2019-01-20T14:46:08Z</time>
      </trkpt>
      <trkpt lat="50.63671" lon="5.42475">
        <ele>183</ele>
        <time>2019-01-20T14:47:08Z</time>
      </trkpt>
      <trkpt lat="50.63665" lon="5.42487">
        <ele>183</ele>
        <time>2019-01-20T14:48:08Z</time>
      </trkpt>
      <trkpt lat="50.63658" lon="5.42484">
        <ele>183</ele>
        <time>2019-01-20T14:49:08Z</time>
      </trkpt>
      <trkpt lat="50.63635" lon="5.42471">
        <ele>183</ele>
        <time>2019-01-20T14:50:08Z</time>
      </trkpt>
      <trkpt lat="50.63289" lon="5.42289">
        <ele>173</ele>
        <time>2019-01-20T14:51:08Z</time>
      </trkpt>
      <trkpt lat="50.63219" lon="5.42252">
        <ele>171</ele>
        <time>2019-01-20T14:52:08Z</time>
      </trkpt>
      <trkpt lat="50.63162" lon="5.42217">
        <ele>172</ele>
        <time>2019-01-20T14:53:08Z</time>
      </trkpt>
      <trkpt lat="50.63117" lon="5.42191">
        <ele>172</ele>
        <time>2019-01-20T14:54:08Z</time>
      </trkpt>
      <trkpt lat="50.63072" lon="5.42164">
        <ele>172</ele>
        <time>2019-01-20T14:55:08Z</time>
      </trkpt>
      <trkpt lat="50.63034" lon="5.42134">
        <ele>172</ele>
        <time>2019-01-20T14:56:08Z</time>
      </trkpt>
      <trkpt lat="50.62978" lon="5.42095">
        <ele>172</ele>
        <time>2019-01-20T14:57:08Z</time>
      </trkpt>
      <trkpt lat="50.62925" lon="5.42049">
        <ele>173</ele>
        <time>2019-01-20T14:58:08Z</time>
      </trkpt>
      <trkpt lat="50.62787" lon="5.41928">
        <ele>176</ele>
        <time>2019-01-20T14:59:08Z</time>
      </trkpt>
      <trkpt lat="50.62765" lon="5.41915">
        <ele>176</ele>
        <time>2019-01-20T15:00:08Z</time>
      </trkpt>
      <trkpt lat="50.62747" lon="5.41907">
        <ele>176</ele>
        <time>2019-01-20T15:01:08Z</time>
      </trkpt>
      <trkpt lat="50.62675" lon="5.41933">
        <ele>175</ele>
        <time>2019-01-20T15:02:08Z</time>
      </trkpt>
      <trkpt lat="50.62673" lon="5.41918">
        <ele>175</ele>
        <time>2019-01-20T15:03:08Z</time>
      </trkpt>
      <trkpt lat="50.6267" lon="5.41888">
        <ele>175</ele>
        <time>2019-01-20T15:04:08Z</time>
      </trkpt>
      <trkpt lat="50.62663" lon="5.41839">
        <ele>175</ele>
        <time>2019-01-20T15:05:08Z</time>
      </trkpt>
      <trkpt lat="50.62658" lon="5.4181">
        <ele>174</ele>
        <time>2019-01-20T15:06:08Z</time>
      </trkpt>
      <trkpt lat="50.62655" lon="5.41797">
        <ele>174</ele>
        <time>2019-01-20T15:07:08Z</time>
      </trkpt>
      <trkpt lat="50.62647" lon="5.41774">
        <ele>173</ele>
        <time>2019-01-20T15:08:08Z</time>
      </trkpt>
      <trkpt lat="50.6263" lon="5.41725">
        <ele>171</ele>
        <time>2019-01-20T15:09:08Z</time>
      </trkpt>
      <trkpt lat="50.62617" lon="5.41688">
        <ele>170</ele>
        <time>2019-01-20T15:10:08Z</time>
      </trkpt>
      <trkpt lat="50.62608" lon="5.41663">
        <ele>170</ele>
        <time>2019-01-20T15:11:08Z</time>
      </trkpt>
      <trkpt lat="50.62571" lon="5.41554">
        <ele>170</ele>
        <time>2019-01-20T15:12:08Z</time>
      </trkpt>
      <trkpt lat="50.62548" lon="5.41523">
        <ele>170</ele>
        <time>2019-01-20T15:13:08Z</time>
      </trkpt>
      <trkpt lat="50.62497" lon="5.41462">
        <ele>170</ele>
        <time>2019-01-20T15:14:08Z</time>
      </trkpt>
      <trkpt lat="50.6249" lon="5.41448">
        <ele>170</ele>
        <time>2019-01-20T15:15:08Z</time>
      </trkpt>
      <trkpt lat="50.62452" lon="5.41295">
        <ele>171</ele>
        <time>2019-01-20T15:16:08Z</time>
      </trkpt>
      <trkpt lat="50.62436" lon="5.41235">
        <ele>172</ele>
        <time>2019-01-20T15:17:08Z</time>
      </trkpt>
      <trkpt lat="50.62458" lon="5.41157">
        <ele>170</ele>
        <time>2019-01-20T15:18:08Z</time>
      </trkpt>
      <trkpt lat="50.62476" lon="5.41093">
        <ele>169</ele>
        <time>2019-01-20T15:19:08Z</time>
      </trkpt>
      <trkpt lat="50.62492" lon="5.40997">
        <ele>167</ele>
        <time>2019-01-20T15:20:08Z</time>
      </trkpt>
      <trkpt lat="50.62519" lon="5.40845">
        <ele>167</ele>
        <time>2019-01-20T15:21:08Z</time>
      </trkpt>
      <trkpt lat="50.6256" lon="5.4062">
        <ele>163</ele>
        <time>2019-01-20T15:22:08Z</time>
      </trkpt>
      <trkpt lat="50.62587" lon="5.40472">
        <ele>160</ele>
        <time>2019-01-20T15:23:08Z</time>
      </trkpt>
      <trkpt lat="50.62668" lon="5.40431">
        <ele>159</ele>
        <time>2019-01-20T15:24:08Z</time>
      </trkpt>
      <trkpt lat="50.6269" lon="5.40436">
        <ele>159</ele>
        <time>2019-01-20T15:25:08Z</time>
      </trkpt>
      <trkpt lat="50.62716" lon="5.40447">
        <ele>158</ele>
        <time>2019-01-20T15:26:08Z</time>
      </trkpt>
      <trkpt lat="50.62721" lon="5.40174">
        <ele>158</ele>
        <time>2019-01-20T15:27:08Z</time>
      </trkpt>
      <trkpt lat="50.6272" lon="5.40086">
        <ele>156</ele>
        <time>2019-01-20T15:28:08Z</time>
      </trkpt>
      <trkpt lat="50.62714" lon="5.40045">
        <ele>153</ele>
        <time>2019-01-20T15:29:08Z</time>
      </trkpt>
      <trkpt lat="50.62705" lon="5.39984">
        <ele>150</ele>
        <time>2019-01-20T15:30:08Z</time>
      </trkpt>
      <trkpt lat="50.62684" lon="5.39902">
        <ele>147</ele>
        <time>2019-01-20T15:31:08Z</time>
      </trkpt>
      <trkpt lat="50.62678" lon="5.39877">
        <ele>147</ele>
        <time>2019-01-20T15:32:08Z</time>
      </trkpt>
      <trkpt lat="50.62697" lon="5.39837">
        <ele>147</ele>
        <time>2019-01-20T15:33:08Z</time>
      </trkpt>
      <trkpt lat="50.62727" lon="5.39769">
        <ele>148</ele>
        <time>2019-01-20T15:34:08Z</time>
      </trkpt>
      <trkpt lat="50.62727" lon="5.3974">
        <ele>147</ele>
        <time>2019-01-20T15:35:08Z</time>
      </trkpt>
      <trkpt lat="50.62703" lon="5.39706">
        <ele>147</ele>
        <time>2019-01-20T15:36:08Z</time>
      </trkpt>
      <trkpt lat="50.62686" lon="5.39682">
        <ele>147</ele>
        <time>2019-01-20T15:37:08Z</time>
      </trkpt>
      <trkpt lat="50.62665" lon="5.39658">
        <ele>146</ele>
        <time>2019-01-20T15:38:08Z</time>
      </trkpt>
      <trkpt lat="50.62645" lon="5.39633">
        <ele>146</ele>
        <time>2019-01-20T15:39:08Z</time>
      </trkpt>
      <trkpt lat="50.62629" lon="5.39603">
        <ele>146</ele>
        <time>2019-01-20T15:40:08Z</time>
      </trkpt>
      <trkpt lat="50.62574" lon="5.39604">
        <ele>144</ele>
        <time>2019-01-20T15:41:08Z</time>
      </trkpt>
      <trkpt lat="50.62495" lon="5.39604">
        <ele>142</ele>
        <time>2019-01-20T15:42:08Z</time>
      </trkpt>
      <trkpt lat="50.62425" lon="5.39607">
        <ele>142</ele>
        <time>2019-01-20T15:43:08Z</time>
      </trkpt>
      <trkpt lat="50.62263" lon="5.3961">
        <ele>134</ele>
        <time>2019-01-20T15:44:08Z</time>
      </trkpt>
      <trkpt lat="50.62165" lon="5.39614">
        <ele>136</ele>
        <time>2019-01-20T15:45:08Z</time>
      </trkpt>
      <trkpt lat="50.62123" lon="5.39583">
        <ele>139</ele>
        <time>2019-01-20T15:46:08Z</time>
      </trkpt>
      <trkpt lat="50.62077" lon="5.39546">
        <ele>138</ele>
        <time>2019-01-20T15:47:08Z</time>
      </trkpt>
      <trkpt lat="50.61975" lon="5.39456">
        <ele>137</ele>
        <time>2019-01-20T15:48:08Z</time>
      </trkpt>
      <trkpt lat="50.61912" lon="5.39401">
        <ele>139</ele>
        <time>2019-01-20T15:49:08Z</time>
      </trkpt>
      <trkpt lat="50.61886" lon="5.39367">
        <ele>137</ele>
        <time>2019-01-20T15:50:08Z</time>
      </trkpt>
      <trkpt lat="50.61756" lon="5.39176">
        <ele>131</ele>
        <time>2019-01-20T15:51:08Z</time>
      </trkpt>
      <trkpt lat="50.61706" lon="5.39107">
        <ele>130</ele>
        <time>2019-01-20T15:52:08Z</time>
      </trkpt>
      <trkpt lat="50.61669" lon="5.39074">
        <ele>130</ele>
        <time>2019-01-20T15:53:08Z</time>
      </trkpt>
      <trkpt lat="50.61633" lon="5.39046">
        <ele>128</ele>
        <time>2019-01-20T15:54:08Z</time>
      </trkpt>
      <trkpt lat="50.6159" lon="5.39013">
        <ele>124</ele>
        <time>2019-01-20T15:55:08Z</time>
      </trkpt>
      <trkpt lat="50.61549" lon="5.38979">
        <ele>124</ele>
        <time>2019-01-20T15:56:08Z</time>
      </trkpt>
      <trkpt lat="50.61519" lon="5.38957">
        <ele>124</ele>
        <time>2019-01-20T15:57:08Z</time>
      </trkpt>
      <trkpt lat="50.61482" lon="5.38936">
        <ele>121</ele>
        <time>2019-01-20T15:58:08Z</time>
      </trkpt>
      <trkpt lat="50.61469" lon="5.38932">
        <ele>120</ele>
        <time>2019-01-20T15:59:08Z</time>
      </trkpt>
      <trkpt lat="50.61453" lon="5.38929">
        <ele>119</ele>
        <time>2019-01-20T16:00:08Z</time>
      </trkpt>
      <trkpt lat="50.61435" lon="5.38936">
        <ele>118</ele>
        <time>2019-01-20T16:01:08Z</time>
      </trkpt>
      <trkpt lat="50.61419" lon="5.38947">
        <ele>118</ele>
        <time>2019-01-20T16:02:08Z</time>
      </trkpt>
      <trkpt lat="50.61396" lon="5.38965">
        <ele>117</ele>
        <time>2019-01-20T16:03:08Z</time>
      </trkpt>
      <trkpt lat="50.61363" lon="5.39">
        <ele>116</ele>
        <time>2019-01-20T16:04:08Z</time>
      </trkpt>
      <trkpt lat="50.61331" lon="5.39037">
        <ele>112</ele>
        <time>2019-01-20T16:05:08Z</time>
      </trkpt>
      <trkpt lat="50.61269" lon="5.39117">
        <ele>112</ele>
        <time>2019-01-20T16:06:08Z</time>
      </trkpt>
      <trkpt lat="50.61219" lon="5.39172">
        <ele>110</ele>
        <time>2019-01-20T16:07:08Z</time>
      </trkpt>
      <trkpt lat="50.61196" lon="5.39186">
        <ele>111</ele>
        <time>2019-01-20T16:08:08Z</time>
      </trkpt>
      <trkpt lat="50.6117" lon="5.39196">
        <ele>111</ele>
        <time>2019-01-20T16:09:08Z</time>
      </trkpt>
      <trkpt lat="50.61139" lon="5.39202">
        <ele>111</ele>
        <time>2019-01-20T16:10:08Z</time>
      </trkpt>
      <trkpt lat="50.61021" lon="5.39221">
        <ele>110</ele>
        <time>2019-01-20T16:11:08Z</time>
      </trkpt>
      <trkpt lat="50.60987" lon="5.39237">
        <ele>110</ele>
        <time>2019-01-20T16:12:08Z</time>
      </trkpt>
      <trkpt lat="50.60958" lon="5.3926">
        <ele>110</ele>
        <time>2019-01-20T16:13:08Z</time>
      </trkpt>
      <trkpt lat="50.60934" lon="5.3929">
        <ele>110</ele>
        <time>2019-01-20T16:14:08Z</time>
      </trkpt>
      <trkpt lat="50.60893" lon="5.39345">
        <ele>112</ele>
        <time>2019-01-20T16:15:08Z</time>
      </trkpt>
      <trkpt lat="50.60874" lon="5.39373">
        <ele>115</ele>
        <time>2019-01-20T16:16:08Z</time>
      </trkpt>
      <trkpt lat="50.6085" lon="5.39421">
        <ele>116</ele>
        <time>2019-01-20T16:17:08Z</time>
      </trkpt>
      <trkpt lat="50.6084" lon="5.39454">
        <ele>114</ele>
        <time>2019-01-20T16:18:08Z</time>
      </trkpt>
      <trkpt lat="50.60823" lon="5.39513">
        <ele>111</ele>
        <time>2019-01-20T16:19:08Z</time>
      </trkpt>
      <trkpt lat="50.60808" lon="5.39565">
        <ele>109</ele>
        <time>2019-01-20T16:20:08Z</time>
      </trkpt>
      <trkpt lat="50.60786" lon="5.39635">
        <ele>110</ele>
        <time>2019-01-20T16:21:08Z</time>
      </trkpt>
      <trkpt lat="50.60758" lon="5.39725">
        <ele>109</ele>
        <time>2019-01-20T16:22:08Z</time>
      </trkpt>
      <trkpt lat="50.60704" lon="5.39896">
        <ele>103</ele>
        <time>2019-01-20T16:23:08Z</time>
      </trkpt>
      <trkpt lat="50.60691" lon="5.39937">
        <ele>102</ele>
        <time>2019-01-20T16:24:08Z</time>
      </trkpt>
      <trkpt lat="50.60645" lon="5.40053">
        <ele>100</ele>
        <time>2019-01-20T16:25:08Z</time>
      </trkpt>
      <trkpt lat="50.60633" lon="5.4008">
        <ele>99</ele>
        <time>2019-01-20T16:26:08Z</time>
      </trkpt>
      <trkpt lat="50.60624" lon="5.40097">
        <ele>99</ele>
        <time>2019-01-20T16:27:08Z</time>
      </trkpt>
      <trkpt lat="50.60611" lon="5.40116">
        <ele>99</ele>
        <time>2019-01-20T16:28:08Z</time>
      </trkpt>
      <trkpt lat="50.60573" lon="5.40162">
        <ele>98</ele>
        <time>2019-01-20T16:29:08Z</time>
      </trkpt>
      <trkpt lat="50.60522" lon="5.40218">
        <ele>97</ele>
        <time>2019-01-20T16:30:08Z</time>
      </trkpt>
      <trkpt lat="50.60497" lon="5.40248">
        <ele>95</ele>
        <time>2019-01-20T16:31:08Z</time>
      </trkpt>
      <trkpt lat="50.60476" lon="5.40271">
        <ele>95</ele>
        <time>2019-01-20T16:32:08Z</time>
      </trkpt>
      <trkpt lat="50.60406" lon="5.40318">
        <ele>96</ele>
        <time>2019-01-20T16:33:08Z</time>
      </trkpt>
      <trkpt lat="50.60223" lon="5.40413">
        <ele>95</ele>
        <time>2019-01-20T16:34:08Z</time>
      </trkpt>
      <trkpt lat="50.60203" lon="5.40422">
        <ele>94</ele>
        <time>2019-01-20T16:35:08Z</time>
      </trkpt>
      <trkpt lat="50.60149" lon="5.40459">
        <ele>93</ele>
        <time>2019-01-20T16:36:08Z</time>
      </trkpt>
      <trkpt lat="50.60065" lon="5.40507">
        <ele>90</ele>
        <time>2019-01-20T16:37:08Z</time>
      </trkpt>
      <trkpt lat="50.60017" lon="5.40534">
        <ele>89</ele>
        <time>2019-01-20T16:38:08Z</time>
      </trkpt>
      <trkpt lat="50.60002" lon="5.40561">
        <ele>88</ele>
        <time>2019-01-20T16:39:08Z</time>
      </trkpt>
      <trkpt lat="50.59992" lon="5.40588">
        <ele>88</ele>
        <time>2019-01-20T16:40:08Z</time>
      </trkpt>
      <trkpt lat="50.59962" lon="5.40689">
        <ele>89</ele>
        <time>2019-01-20T16:41:08Z</time>
      </trkpt>
      <trkpt lat="50.59918" lon="5.40836">
        <ele>87</ele>
        <time>2019-01-20T16:42:08Z</time>
      </trkpt>
      <trkpt lat="50.59879" lon="5.40973">
        <ele>89</ele>
        <time>2019-01-20T16:43:08Z</time>
      </trkpt>
      <trkpt lat="50.59868" lon="5.41011">
        <ele>88</ele>
        <time>2019-01-20T16:44:08Z</time>
      </trkpt>
      <trkpt lat="50.59848" lon="5.41045">
        <ele>88</ele>
        <time>2019-01-20T16:45:08Z</time>
      </trkpt>
      <trkpt lat="50.59818" lon="5.41083">
        <ele>87</ele>
        <time>2019-01-20T16:46:08Z</time>
      </trkpt>
      <trkpt lat="50.59798" lon="5.411">
        <ele>87</ele>
        <time>2019-01-20T16:47:08Z</time>
      </trkpt>
      <trkpt lat="50.59779" lon="5.41109">
        <ele>87</ele>
        <time>2019-01-20T16:48:08Z</time>
      </trkpt>
      <trkpt lat="50.59693" lon="5.41112">
        <ele>86</ele>
        <time>2019-01-20T16:49:08Z</time>
      </trkpt>
      <trkpt lat="50.59657" lon="5.41113">
        <ele>85</ele>
        <time>2019-01-20T16:50:08Z</time>
      </trkpt>
      <trkpt lat="50.59554" lon="5.4109">
        <ele>82</ele>
        <time>2019-01-20T16:51:08Z</time>
      </trkpt>
      <trkpt lat="50.59513" lon="5.41082">
        <ele>81</ele>
        <time>2019-01-20T16:52:08Z</time>
      </trkpt>
      <trkpt lat="50.59467" lon="5.41086">
        <ele>82</ele>
        <time>2019-01-20T16:53:08Z</time>
      </trkpt>
      <trkpt lat="50.59404" lon="5.41098">
        <ele>83</ele>
        <time>2019-01-20T16:54:08Z</time>
      </trkpt>
      <trkpt lat="50.59282" lon="5.41123">
        <ele>88</ele>
        <time>2019-01-20T16:55:08Z</time>
      </trkpt>
      <trkpt lat="50.59225" lon="5.41149">
        <ele>88</ele>
        <time>2019-01-20T16:56:08Z</time>
      </trkpt>
      <trkpt lat="50.59207" lon="5.41149">
        <ele>86</ele>
        <time>2019-01-20T16:57:08Z</time>
      </trkpt>
      <trkpt lat="50.59171" lon="5.41139">
        <ele>84</ele>
        <time>2019-01-20T16:58:08Z</time>
      </trkpt>
      <trkpt lat="50.59101" lon="5.41113">
        <ele>84</ele>
        <time>2019-01-20T16:59:08Z</time>
      </trkpt>
      <trkpt lat="50.59048" lon="5.4109">
        <ele>79</ele>
        <time>2019-01-20T17:00:08Z</time>
      </trkpt>
      <trkpt lat="50.59026" lon="5.41084">
        <ele>78</ele>
        <time>2019-01-20T17:01:08Z</time>
      </trkpt>
      <trkpt lat="50.59004" lon="5.41085">
        <ele>76</ele>
        <time>2019-01-20T17:02:08Z</time>
      </trkpt>
      <trkpt lat="50.58992" lon="5.41092">
        <ele>76</ele>
        <time>2019-01-20T17:03:08Z</time>
      </trkpt>
      <trkpt lat="50.58978" lon="5.41102">
        <ele>76</ele>
        <time>2019-01-20T17:04:08Z</time>
      </trkpt>
      <trkpt lat="50.58962" lon="5.4113">
        <ele>77</ele>
        <time>2019-01-20T17:05:08Z</time>
      </trkpt>
      <trkpt lat="50.58908" lon="5.41277">
        <ele>72</ele>
        <time>2019-01-20T17:06:08Z</time>
      </trkpt>
      <trkpt lat="50.58901" lon="5.41296">
        <ele>72</ele>
        <time>2019-01-20T17:07:08Z</time>
      </trkpt>
      <trkpt lat="50.58889" lon="5.41321">
        <ele>72</ele>
        <time>2019-01-20T17:08:08Z</time>
      </trkpt>
      <trkpt lat="50.58881" lon="5.41337">
        <ele>71</ele>
        <time>2019-01-20T17:09:08Z</time>
      </trkpt>
      <trkpt lat="50.58865" lon="5.41356">
        <ele>70</ele>
        <time>2019-01-20T17:10:08Z</time>
      </trkpt>
      <trkpt lat="50.58834" lon="5.41383">
        <ele>68</ele>
        <time>2019-01-20T17:11:08Z</time>
      </trkpt>
      <trkpt lat="50.58797" lon="5.41423">
        <ele>68</ele>
        <time>2019-01-20T17:12:08Z</time>
      </trkpt>
      <trkpt lat="50.58726" lon="5.41523">
        <ele>71</ele>
        <time>2019-01-20T17:13:08Z</time>
      </trkpt>
      <trkpt lat="50.58706" lon="5.4154">
        <ele>70</ele>
        <time>2019-01-20T17:14:08Z</time>
      </trkpt>
      <trkpt lat="50.58653" lon="5.4156">
        <ele>67</ele>
        <time>2019-01-20T17:15:08Z</time>
      </trkpt>
      <trkpt lat="50.58611" lon="5.41578">
        <ele>68</ele>
        <time>2019-01-20T17:16:08Z</time>
      </trkpt>
      <trkpt lat="50.58608" lon="5.41682">
        <ele>66</ele>
        <time>2019-01-20T17:17:08Z</time>
      </trkpt>
      <trkpt lat="50.58609" lon="5.41743">
        <ele>65</ele>
        <time>2019-01-20T17:18:08Z</time>
      </trkpt>
      <trkpt lat="50.58612" lon="5.41778">
        <ele>66</ele>
        <time>2019-01-20T17:19:08Z</time>
      </trkpt>
      <trkpt lat="50.58621" lon="5.41877">
        <ele>66</ele>
        <time>2019-01-20T17:20:08Z</time>
      </trkpt>
      <trkpt lat="50.58683" lon="5.42474">
        <ele>65</ele>
        <time>2019-01-20T17:21:08Z</time>
      </trkpt>
      <trkpt lat="50.58692" lon="5.42557">
        <ele>64</ele>
        <time>2019-01-20T17:22:08Z</time>
      </trkpt>
      <trkpt lat="50.58706" lon="5.42636">
        <ele>63</ele>
        <time>2019-01-20T17:23:08Z</time>
      </trkpt>
      <trkpt lat="50.58788" lon="5.42969">
        <ele>66</ele>
        <time>2019-01-20T17:24:08Z</time>
      </trkpt>
      <trkpt lat="50.58856" lon="5.43237">
        <ele>71</ele>
        <time>2019-01-20T17:25:08Z</time>
      </trkpt>
      <trkpt lat="50.58868" lon="5.43283">
        <ele>73</ele>
        <time>2019-01-20T17:26:08Z</time>
      </trkpt>
      <trkpt lat="50.58874" lon="5.43335">
        <ele>72</ele>
        <time>2019-01-20T17:27:08Z</time>
      </trkpt>
      <trkpt lat="50.5888" lon="5.43384">
        <ele>72</ele>
        <time>2019-01-20T17:28:08Z</time>
      </trkpt>
      <trkpt lat="50.58884" lon="5.43434">
        <ele>71</ele>
        <time>2019-01-20T17:29:08Z</time>
      </trkpt>
      <trkpt lat="50.5889" lon="5.43517">
        <ele>69</ele>
        <time>2019-01-20T17:30:08Z</time>
      </trkpt>
      <trkpt lat="50.58897" lon="5.43618">
        <ele>70</ele>
        <time>2019-01-20T17:31:08Z</time>
      </trkpt>
      <trkpt lat="50.58905" lon="5.43703">
        <ele>69</ele>
        <time>2019-01-20T17:32:08Z</time>
      </trkpt>
      <trkpt lat="50.58931" lon="5.43884">
        <ele>65</ele>
        <time>2019-01-20T17:33:08Z</time>
      </trkpt>
      <trkpt lat="50.58974" lon="5.44201">
        <ele>70</ele>
        <time>2019-01-20T17:34:08Z</time>
      </trkpt>
      <trkpt lat="50.58992" lon="5.44311">
        <ele>71</ele>
        <time>2019-01-20T17:35:08Z</time>
      </trkpt>
      <trkpt lat="50.59026" lon="5.44482">
        <ele>67</ele>
        <time>2019-01-20T17:36:08Z</time>
      </trkpt>
      <trkpt lat="50.59041" lon="5.44558">
        <ele>67</ele>
        <time>2019-01-20T17:37:08Z</time>
      </trkpt>
      <trkpt lat="50.59052" lon="5.4459">
        <ele>67</ele>
        <time>2019-01-20T17:38:08Z</time>
      </trkpt>
      <trkpt lat="50.59064" lon="5.44621">
        <ele>67</ele>
        <time>2019-01-20T17:39:08Z</time>
      </trkpt>
      <trkpt lat="50.59111" lon="5.44725">
        <ele>65</ele>
        <time>2019-01-20T17:40:08Z</time>
      </trkpt>
      <trkpt lat="50.59155" lon="5.44815">
        <ele>63</ele>
        <time>2019-01-20T17:41:08Z</time>
      </trkpt>
      <trkpt lat="50.59166" lon="5.44842">
        <ele>63</ele>
        <time>2019-01-20T17:42:08Z</time>
      </trkpt>
      <trkpt lat="50.59176" lon="5.44869">
        <ele>64</ele>
        <time>2019-01-20T17:43:08Z</time>
      </trkpt>
      <trkpt lat="50.59183" lon="5.44893">
        <ele>65</ele>
        <time>2019-01-20T17:44:08Z</time>
      </trkpt>
      <trkpt lat="50.59188" lon="5.44921">
        <ele>65</ele>
        <time>2019-01-20T17:45:08Z</time>
      </trkpt>
      <trkpt lat="50.59203" lon="5.44996">
        <ele>65</ele>
        <time>2019-01-20T17:46:08Z</time>
      </trkpt>
      <trkpt lat="50.5922" lon="5.45091">
        <ele>66</ele>
        <time>2019-01-20T17:47:08Z</time>
      </trkpt>
      <trkpt lat="50.59235" lon="5.45192">
        <ele>66</ele>
        <time>2019-01-20T17:48:08Z</time>
      </trkpt>
      <trkpt lat="50.59239" lon="5.45221">
        <ele>65</ele>
        <time>2019-01-20T17:49:08Z</time>
      </trkpt>
      <trkpt lat="50.59241" lon="5.45249">
        <ele>64</ele>
        <time>2019-01-20T17:50:08Z</time>
      </trkpt>
      <trkpt lat="50.5924" lon="5.45275">
        <ele>64</ele>
        <time>2019-01-20T17:51:08Z</time>
      </trkpt>
      <trkpt lat="50.59235" lon="5.4536">
        <ele>65</ele>
        <time>2019-01-20T17:52:08Z</time>
      </trkpt>
      <trkpt lat="50.59236" lon="5.45388">
        <ele>66</ele>
        <time>2019-01-20T17:53:08Z</time>
      </trkpt>
      <trkpt lat="50.59248" lon="5.45395">
        <ele>66</ele>
        <time>2019-01-20T17:54:08Z</time>
      </trkpt>
      <trkpt lat="50.5926" lon="5.45396">
        <ele>66</ele>
        <time>2019-01-20T17:55:08Z</time>
      </trkpt>
      <trkpt lat="50.59268" lon="5.45402">
        <ele>67</ele>
        <time>2019-01-20T17:56:08Z</time>
      </trkpt>
      <trkpt lat="50.59276" lon="5.45417">
        <ele>67</ele>
        <time>2019-01-20T17:57:08Z</time>
      </trkpt>
      <trkpt lat="50.59296" lon="5.45464">
        <ele>66</ele>
        <time>2019-01-20T17:58:08Z</time>
      </trkpt>
      <trkpt lat="50.59335" lon="5.45532">
        <ele>67</ele>
        <time>2019-01-20T17:59:08Z</time>
      </trkpt>
      <trkpt lat="50.59368" lon="5.45592">
        <ele>67</ele>
        <time>2019-01-20T18:00:08Z</time>
      </trkpt>
      <trkpt lat="50.59378" lon="5.45611">
        <ele>68</ele>
        <time>2019-01-20T18:01:08Z</time>
      </trkpt>
      <trkpt lat="50.59407" lon="5.45693">
        <ele>67</ele>
        <time>2019-01-20T18:02:08Z</time>
      </trkpt>
      <trkpt lat="50.59447" lon="5.45795">
        <ele>66</ele>
        <time>2019-01-20T18:03:08Z</time>
      </trkpt>
      <trkpt lat="50.59471" lon="5.45854">
        <ele>67</ele>
        <time>2019-01-20T18:04:08Z</time>
      </trkpt>
      <trkpt lat="50.59524" lon="5.4599">
        <ele>68</ele>
        <time>2019-01-20T18:05:08Z</time>
      </trkpt>
      <trkpt lat="50.59559" lon="5.46077">
        <ele>68</ele>
        <time>2019-01-20T18:06:08Z</time>
      </trkpt>
      <trkpt lat="50.59576" lon="5.46116">
        <ele>68</ele>
        <time>2019-01-20T18:07:08Z</time>
      </trkpt>
      <trkpt lat="50.59596" lon="5.46173">
        <ele>68</ele>
        <time>2019-01-20T18:08:08Z</time>
      </trkpt>
      <trkpt lat="50.59614" lon="5.46224">
        <ele>67</ele>
        <time>2019-01-20T18:09:08Z</time>
      </trkpt>
      <trkpt lat="50.5964" lon="5.46293">
        <ele>66</ele>
        <time>2019-01-20T18:10:08Z</time>
      </trkpt>
      <trkpt lat="50.59691" lon="5.46426">
        <ele>66</ele>
        <time>2019-01-20T18:11:08Z</time>
      </trkpt>
      <trkpt lat="50.59722" lon="5.46506">
        <ele>67</ele>
        <time>2019-01-20T18:12:08Z</time>
      </trkpt>
      <trkpt lat="50.5976" lon="5.46597">
        <ele>68</ele>
        <time>2019-01-20T18:13:08Z</time>
      </trkpt>
      <trkpt lat="50.59786" lon="5.46645">
        <ele>67</ele>
        <time>2019-01-20T18:14:08Z</time>
      </trkpt>
      <trkpt lat="50.59811" lon="5.46698">
        <ele>67</ele>
        <time>2019-01-20T18:15:08Z</time>
      </trkpt>
      <trkpt lat="50.59841" lon="5.46768">
        <ele>68</ele>
        <time>2019-01-20T18:16:08Z</time>
      </trkpt>
      <trkpt lat="50.5986" lon="5.46831">
        <ele>68</ele>
        <time>2019-01-20T18:17:08Z</time>
      </trkpt>
      <trkpt lat="50.59873" lon="5.46888">
        <ele>67</ele>
        <time>2019-01-20T18:18:08Z</time>
      </trkpt>
      <trkpt lat="50.59895" lon="5.47013">
        <ele>65</ele>
        <time>2019-01-20T18:19:08Z</time>
      </trkpt>
      <trkpt lat="50.59909" lon="5.47102">
        <ele>64</ele>
        <time>2019-01-20T18:20:08Z</time>
      </trkpt>
      <trkpt lat="50.59922" lon="5.47178">
        <ele>64</ele>
        <time>2019-01-20T18:21:08Z</time>
      </trkpt>
      <trkpt lat="50.59926" lon="5.47199">
        <ele>64</ele>
        <time>2019-01-20T18:22:08Z</time>
      </trkpt>
      <trkpt lat="50.59931" lon="5.47213">
        <ele>64</ele>
        <time>2019-01-20T18:23:08Z</time>
      </trkpt>
      <trkpt lat="50.59938" lon="5.4724">
        <ele>65</ele>
        <time>2019-01-20T18:24:08Z</time>
      </trkpt>
      <trkpt lat="50.59949" lon="5.4727">
        <ele>65</ele>
        <time>2019-01-20T18:25:08Z</time>
      </trkpt>
      <trkpt lat="50.60253" lon="5.47808">
        <ele>65</ele>
        <time>2019-01-20T18:26:08Z</time>
      </trkpt>
      <trkpt lat="50.60263" lon="5.47827">
        <ele>65</ele>
        <time>2019-01-20T18:27:08Z</time>
      </trkpt>
      <trkpt lat="50.60333" lon="5.47949">
        <ele>67</ele>
        <time>2019-01-20T18:28:08Z</time>
      </trkpt>
      <trkpt lat="50.60353" lon="5.47984">
        <ele>67</ele>
        <time>2019-01-20T18:29:08Z</time>
      </trkpt>
      <trkpt lat="50.60365" lon="5.48006">
        <ele>67</ele>
        <time>2019-01-20T18:30:08Z</time>
      </trkpt>
      <trkpt lat="50.60382" lon="5.48045">
        <ele>67</ele>
        <time>2019-01-20T18:31:08Z</time>
      </trkpt>
      <trkpt lat="50.60402" lon="5.48095">
        <ele>67</ele>
        <time>2019-01-20T18:32:08Z</time>
      </trkpt>
      <trkpt lat="50.60435" lon="5.48173">
        <ele>68</ele>
        <time>2019-01-20T18:33:08Z</time>
      </trkpt>
      <trkpt lat="50.60448" lon="5.48211">
        <ele>68</ele>
        <time>2019-01-20T18:34:08Z</time>
      </trkpt>
      <trkpt lat="50.60471" lon="5.4829">
        <ele>68</ele>
        <time>2019-01-20T18:35:08Z</time>
      </trkpt>
      <trkpt lat="50.60488" lon="5.48347">
        <ele>68</ele>
        <time>2019-01-20T18:36:08Z</time>
      </trkpt>
      <trkpt lat="50.60492" lon="5.48367">
        <ele>67</ele>
        <time>2019-01-20T18:37:08Z</time>
      </trkpt>
      <trkpt lat="50.60487" lon="5.48374">
        <ele>67</ele>
        <time>2019-01-20T18:38:08Z</time>
      </trkpt>
      <trkpt lat="50.60486" lon="5.48383">
        <ele>67</ele>
        <time>2019-01-20T18:39:08Z</time>
      </trkpt>
      <trkpt lat="50.60485" lon="5.48394">
        <ele>67</ele>
        <time>2019-01-20T18:40:08Z</time>
      </trkpt>
      <trkpt lat="50.60422" lon="5.48469">
        <ele>64</ele>
        <time>2019-01-20T18:41:08Z</time>
      </trkpt>
      <trkpt lat="50.60408" lon="5.48449">
        <ele>65</ele>
        <time>2019-01-20T18:42:08Z</time>
      </trkpt>
      <trkpt lat="50.60428" lon="5.48437">
        <ele>65</ele>
        <time>2019-01-20T18:43:08Z</time>
      </trkpt>
    </trkseg>
  </trk>
</gpx>